<?xml version="1.0" encoding="UTF-8" standalone="no" ?>
<gpx xmlns="http://www.topografix.com/GPX/1/1" xmlns:xsi="http://www.w3.org/2001/XMLSchema-instance" xsi:schemaLocation="http://www.topografix.com/GPX/1/1 http://www.topografix.com/GPX/1/1/gpx.xsd" version="1.1" creator="VisuGPX - https://www.visugpx.com">
  <metadata>
    <name>rando RSPG 31/10/2013</name>
    <desc><![CDATA[Beaudinard/Lac des Monges/Crête de Raus/Serrière des cabanes .Un circuit d\'envergure dans le paysage sauvage du massif des Monges ]]></desc>
  </metadata>
  <trk>
    <name><![CDATA[beaudinard lac raus]]></name>
    <trkseg>
      <trkpt lat="44.28934" lon="6.15389">
        <ele>1126.8024902</ele>
        <time>2013-10-31T08:37:01Z</time>
      </trkpt>
      <trkpt lat="44.28928" lon="6.15403">
        <ele>1130.1669922</ele>
        <time>2013-10-31T08:38:24Z</time>
      </trkpt>
      <trkpt lat="44.28926" lon="6.15408">
        <ele>1130.6477051</ele>
        <time>2013-10-31T08:38:44Z</time>
      </trkpt>
      <trkpt lat="44.2892" lon="6.15424">
        <ele>1134.0124512</ele>
        <time>2013-10-31T08:39:01Z</time>
      </trkpt>
      <trkpt lat="44.28917" lon="6.15449">
        <ele>1137.3769531</ele>
        <time>2013-10-31T08:39:24Z</time>
      </trkpt>
      <trkpt lat="44.2892" lon="6.15478">
        <ele>1140.7414551</ele>
        <time>2013-10-31T08:39:49Z</time>
      </trkpt>
      <trkpt lat="44.28911" lon="6.1551">
        <ele>1143.6254883</ele>
        <time>2013-10-31T08:40:14Z</time>
      </trkpt>
      <trkpt lat="44.28907" lon="6.15524">
        <ele>1144.5866699</ele>
        <time>2013-10-31T08:40:24Z</time>
      </trkpt>
      <trkpt lat="44.28911" lon="6.15554">
        <ele>1146.5095215</ele>
        <time>2013-10-31T08:40:50Z</time>
      </trkpt>
      <trkpt lat="44.28912" lon="6.15576">
        <ele>1148.4321289</ele>
        <time>2013-10-31T08:41:17Z</time>
      </trkpt>
      <trkpt lat="44.28917" lon="6.15588">
        <ele>1149.8742676</ele>
        <time>2013-10-31T08:41:30Z</time>
      </trkpt>
      <trkpt lat="44.28918" lon="6.1562">
        <ele>1152.7580566</ele>
        <time>2013-10-31T08:41:54Z</time>
      </trkpt>
      <trkpt lat="44.28914" lon="6.15644">
        <ele>1155.6420898</ele>
        <time>2013-10-31T08:42:18Z</time>
      </trkpt>
      <trkpt lat="44.28913" lon="6.15658">
        <ele>1158.5258789</ele>
        <time>2013-10-31T08:42:40Z</time>
      </trkpt>
      <trkpt lat="44.28912" lon="6.15675">
        <ele>1162.3710938</ele>
        <time>2013-10-31T08:42:59Z</time>
      </trkpt>
      <trkpt lat="44.28902" lon="6.15693">
        <ele>1165.2553711</ele>
        <time>2013-10-31T08:43:22Z</time>
      </trkpt>
      <trkpt lat="44.28888" lon="6.15707">
        <ele>1168.619873</ele>
        <time>2013-10-31T08:43:45Z</time>
      </trkpt>
      <trkpt lat="44.28875" lon="6.15725">
        <ele>1171.5036621</ele>
        <time>2013-10-31T08:44:11Z</time>
      </trkpt>
      <trkpt lat="44.28865" lon="6.15751">
        <ele>1174.8684082</ele>
        <time>2013-10-31T08:44:38Z</time>
      </trkpt>
      <trkpt lat="44.28856" lon="6.15773">
        <ele>1176.3103027</ele>
        <time>2013-10-31T08:45:00Z</time>
      </trkpt>
      <trkpt lat="44.28852" lon="6.158">
        <ele>1174.8684082</ele>
        <time>2013-10-31T08:45:21Z</time>
      </trkpt>
      <trkpt lat="44.28854" lon="6.1584">
        <ele>1171.984375</ele>
        <time>2013-10-31T08:45:48Z</time>
      </trkpt>
      <trkpt lat="44.28851" lon="6.15844">
        <ele>1171.984375</ele>
        <time>2013-10-31T08:46:26Z</time>
      </trkpt>
      <trkpt lat="44.28853" lon="6.15877">
        <ele>1169.5812988</ele>
        <time>2013-10-31T08:46:54Z</time>
      </trkpt>
      <trkpt lat="44.2886" lon="6.15905">
        <ele>1169.1005859</ele>
        <time>2013-10-31T08:47:20Z</time>
      </trkpt>
      <trkpt lat="44.28857" lon="6.15921">
        <ele>1166.6972656</ele>
        <time>2013-10-31T08:47:44Z</time>
      </trkpt>
      <trkpt lat="44.28851" lon="6.15941">
        <ele>1169.1005859</ele>
        <time>2013-10-31T08:48:12Z</time>
      </trkpt>
      <trkpt lat="44.28852" lon="6.15971">
        <ele>1172.4650879</ele>
        <time>2013-10-31T08:48:40Z</time>
      </trkpt>
      <trkpt lat="44.28863" lon="6.15994">
        <ele>1175.348877</ele>
        <time>2013-10-31T08:49:05Z</time>
      </trkpt>
      <trkpt lat="44.28866" lon="6.16012">
        <ele>1178.713623</ele>
        <time>2013-10-31T08:49:23Z</time>
      </trkpt>
      <trkpt lat="44.2884" lon="6.16026">
        <ele>1181.5976563</ele>
        <time>2013-10-31T08:49:42Z</time>
      </trkpt>
      <trkpt lat="44.28835" lon="6.16032">
        <ele>1183.0395508</ele>
        <time>2013-10-31T08:50:07Z</time>
      </trkpt>
      <trkpt lat="44.28829" lon="6.16049">
        <ele>1185.923584</ele>
        <time>2013-10-31T08:50:31Z</time>
      </trkpt>
      <trkpt lat="44.28828" lon="6.16073">
        <ele>1189.2880859</ele>
        <time>2013-10-31T08:50:52Z</time>
      </trkpt>
      <trkpt lat="44.28822" lon="6.16103">
        <ele>1192.1721191</ele>
        <time>2013-10-31T08:51:12Z</time>
      </trkpt>
      <trkpt lat="44.2882" lon="6.16129">
        <ele>1192.652832</ele>
        <time>2013-10-31T08:51:42Z</time>
      </trkpt>
      <trkpt lat="44.28807" lon="6.1614">
        <ele>1195.5366211</ele>
        <time>2013-10-31T08:52:03Z</time>
      </trkpt>
      <trkpt lat="44.28779" lon="6.1614">
        <ele>1197.9401855</ele>
        <time>2013-10-31T08:52:33Z</time>
      </trkpt>
      <trkpt lat="44.28765" lon="6.16159">
        <ele>1200.8239746</ele>
        <time>2013-10-31T08:53:01Z</time>
      </trkpt>
      <trkpt lat="44.28756" lon="6.16181">
        <ele>1204.1887207</ele>
        <time>2013-10-31T08:53:20Z</time>
      </trkpt>
      <trkpt lat="44.28746" lon="6.16193">
        <ele>1207.0725098</ele>
        <time>2013-10-31T08:53:41Z</time>
      </trkpt>
      <trkpt lat="44.28736" lon="6.16206">
        <ele>1210.4370117</ele>
        <time>2013-10-31T08:53:59Z</time>
      </trkpt>
      <trkpt lat="44.28728" lon="6.16234">
        <ele>1213.3212891</ele>
        <time>2013-10-31T08:54:27Z</time>
      </trkpt>
      <trkpt lat="44.28719" lon="6.16258">
        <ele>1211.3984375</ele>
        <time>2013-10-31T08:55:03Z</time>
      </trkpt>
      <trkpt lat="44.28712" lon="6.16258">
        <ele>1211.8791504</ele>
        <time>2013-10-31T08:55:31Z</time>
      </trkpt>
      <trkpt lat="44.28686" lon="6.16277">
        <ele>1210.9177246</ele>
        <time>2013-10-31T08:56:01Z</time>
      </trkpt>
      <trkpt lat="44.28674" lon="6.16302">
        <ele>1210.4370117</ele>
        <time>2013-10-31T08:56:39Z</time>
      </trkpt>
      <trkpt lat="44.28653" lon="6.16316">
        <ele>1211.3984375</ele>
        <time>2013-10-31T08:57:10Z</time>
      </trkpt>
      <trkpt lat="44.28647" lon="6.16312">
        <ele>1215.2438965</ele>
        <time>2013-10-31T08:57:27Z</time>
      </trkpt>
      <trkpt lat="44.28632" lon="6.16308">
        <ele>1216.2050781</ele>
        <time>2013-10-31T08:58:00Z</time>
      </trkpt>
      <trkpt lat="44.2863" lon="6.16306">
        <ele>1216.2050781</ele>
        <time>2013-10-31T08:58:02Z</time>
      </trkpt>
      <trkpt lat="44.28608" lon="6.16281">
        <ele>1218.1276855</ele>
        <time>2013-10-31T08:58:25Z</time>
      </trkpt>
      <trkpt lat="44.28589" lon="6.16271">
        <ele>1220.5310059</ele>
        <time>2013-10-31T08:58:43Z</time>
      </trkpt>
      <trkpt lat="44.28589" lon="6.16271">
        <ele>1220.050293</ele>
        <time>2013-10-31T08:58:45Z</time>
      </trkpt>
      <trkpt lat="44.28583" lon="6.16267">
        <ele>1221.4921875</ele>
        <time>2013-10-31T08:58:53Z</time>
      </trkpt>
      <trkpt lat="44.28575" lon="6.16268">
        <ele>1223.4150391</ele>
        <time>2013-10-31T08:59:10Z</time>
      </trkpt>
      <trkpt lat="44.28564" lon="6.16275">
        <ele>1226.2988281</ele>
        <time>2013-10-31T08:59:39Z</time>
      </trkpt>
      <trkpt lat="44.28542" lon="6.163">
        <ele>1227.7407227</ele>
        <time>2013-10-31T09:00:09Z</time>
      </trkpt>
      <trkpt lat="44.28542" lon="6.16301">
        <ele>1228.2216797</ele>
        <time>2013-10-31T09:00:10Z</time>
      </trkpt>
      <trkpt lat="44.28536" lon="6.16296">
        <ele>1228.2216797</ele>
        <time>2013-10-31T09:00:33Z</time>
      </trkpt>
      <trkpt lat="44.28531" lon="6.16289">
        <ele>1229.1828613</ele>
        <time>2013-10-31T09:00:51Z</time>
      </trkpt>
      <trkpt lat="44.28521" lon="6.16288">
        <ele>1231.1057129</ele>
        <time>2013-10-31T09:01:13Z</time>
      </trkpt>
      <trkpt lat="44.28507" lon="6.16302">
        <ele>1233.989502</ele>
        <time>2013-10-31T09:01:42Z</time>
      </trkpt>
      <trkpt lat="44.28497" lon="6.16325">
        <ele>1237.3540039</ele>
        <time>2013-10-31T09:02:15Z</time>
      </trkpt>
      <trkpt lat="44.28482" lon="6.16361">
        <ele>1239.2766113</ele>
        <time>2013-10-31T09:02:51Z</time>
      </trkpt>
      <trkpt lat="44.28464" lon="6.16394">
        <ele>1241.6799316</ele>
        <time>2013-10-31T09:03:23Z</time>
      </trkpt>
      <trkpt lat="44.28455" lon="6.16417">
        <ele>1244.0834961</ele>
        <time>2013-10-31T09:03:55Z</time>
      </trkpt>
      <trkpt lat="44.28438" lon="6.16442">
        <ele>1245.0446777</ele>
        <time>2013-10-31T09:04:21Z</time>
      </trkpt>
      <trkpt lat="44.28431" lon="6.16476">
        <ele>1248.4091797</ele>
        <time>2013-10-31T09:04:47Z</time>
      </trkpt>
      <trkpt lat="44.28412" lon="6.16502">
        <ele>1250.8125</ele>
        <time>2013-10-31T09:05:22Z</time>
      </trkpt>
      <trkpt lat="44.28393" lon="6.16535">
        <ele>1252.7351074</ele>
        <time>2013-10-31T09:05:53Z</time>
      </trkpt>
      <trkpt lat="44.28366" lon="6.16552">
        <ele>1255.1384277</ele>
        <time>2013-10-31T09:06:22Z</time>
      </trkpt>
      <trkpt lat="44.28363" lon="6.16585">
        <ele>1254.6577148</ele>
        <time>2013-10-31T09:06:49Z</time>
      </trkpt>
      <trkpt lat="44.28374" lon="6.16618">
        <ele>1252.2543945</ele>
        <time>2013-10-31T09:07:33Z</time>
      </trkpt>
      <trkpt lat="44.2836" lon="6.16631">
        <ele>1250.8125</ele>
        <time>2013-10-31T09:08:16Z</time>
      </trkpt>
      <trkpt lat="44.28346" lon="6.16663">
        <ele>1251.7739258</ele>
        <time>2013-10-31T09:08:50Z</time>
      </trkpt>
      <trkpt lat="44.28341" lon="6.16694">
        <ele>1250.3320313</ele>
        <time>2013-10-31T09:09:16Z</time>
      </trkpt>
      <trkpt lat="44.28347" lon="6.16728">
        <ele>1249.3706055</ele>
        <time>2013-10-31T09:09:41Z</time>
      </trkpt>
      <trkpt lat="44.28343" lon="6.16747">
        <ele>1249.3706055</ele>
        <time>2013-10-31T09:10:06Z</time>
      </trkpt>
      <trkpt lat="44.28311" lon="6.16727">
        <ele>1249.8513184</ele>
        <time>2013-10-31T09:10:34Z</time>
      </trkpt>
      <trkpt lat="44.28296" lon="6.1672">
        <ele>1251.2932129</ele>
        <time>2013-10-31T09:10:56Z</time>
      </trkpt>
      <trkpt lat="44.2828" lon="6.16714">
        <ele>1253.6965332</ele>
        <time>2013-10-31T09:11:17Z</time>
      </trkpt>
      <trkpt lat="44.28273" lon="6.16731">
        <ele>1257.0610352</ele>
        <time>2013-10-31T09:11:37Z</time>
      </trkpt>
      <trkpt lat="44.28279" lon="6.16755">
        <ele>1259.9448242</ele>
        <time>2013-10-31T09:11:56Z</time>
      </trkpt>
      <trkpt lat="44.28274" lon="6.1677">
        <ele>1263.3098145</ele>
        <time>2013-10-31T09:12:14Z</time>
      </trkpt>
      <trkpt lat="44.28265" lon="6.16786">
        <ele>1266.6743164</ele>
        <time>2013-10-31T09:12:38Z</time>
      </trkpt>
      <trkpt lat="44.28287" lon="6.16797">
        <ele>1269.5583496</ele>
        <time>2013-10-31T09:13:05Z</time>
      </trkpt>
      <trkpt lat="44.28294" lon="6.16819">
        <ele>1273.4035645</ele>
        <time>2013-10-31T09:13:26Z</time>
      </trkpt>
      <trkpt lat="44.28295" lon="6.16829">
        <ele>1276.2875977</ele>
        <time>2013-10-31T09:13:44Z</time>
      </trkpt>
      <trkpt lat="44.28279" lon="6.16849">
        <ele>1279.1713867</ele>
        <time>2013-10-31T09:14:08Z</time>
      </trkpt>
      <trkpt lat="44.28271" lon="6.16869">
        <ele>1282.0554199</ele>
        <time>2013-10-31T09:14:29Z</time>
      </trkpt>
      <trkpt lat="44.28269" lon="6.16886">
        <ele>1285.4199219</ele>
        <time>2013-10-31T09:14:51Z</time>
      </trkpt>
      <trkpt lat="44.28269" lon="6.16904">
        <ele>1288.784668</ele>
        <time>2013-10-31T09:15:10Z</time>
      </trkpt>
      <trkpt lat="44.28265" lon="6.16924">
        <ele>1292.1494141</ele>
        <time>2013-10-31T09:15:29Z</time>
      </trkpt>
      <trkpt lat="44.28265" lon="6.16954">
        <ele>1295.513916</ele>
        <time>2013-10-31T09:15:52Z</time>
      </trkpt>
      <trkpt lat="44.28257" lon="6.16978">
        <ele>1297.4365234</ele>
        <time>2013-10-31T09:16:18Z</time>
      </trkpt>
      <trkpt lat="44.28253" lon="6.16999">
        <ele>1300.8010254</ele>
        <time>2013-10-31T09:16:45Z</time>
      </trkpt>
      <trkpt lat="44.28251" lon="6.17023">
        <ele>1304.1657715</ele>
        <time>2013-10-31T09:17:10Z</time>
      </trkpt>
      <trkpt lat="44.28242" lon="6.17052">
        <ele>1307.0495605</ele>
        <time>2013-10-31T09:17:39Z</time>
      </trkpt>
      <trkpt lat="44.28229" lon="6.17078">
        <ele>1309.9335938</ele>
        <time>2013-10-31T09:18:08Z</time>
      </trkpt>
      <trkpt lat="44.2823" lon="6.17106">
        <ele>1313.2983398</ele>
        <time>2013-10-31T09:18:38Z</time>
      </trkpt>
      <trkpt lat="44.28233" lon="6.17102">
        <ele>1316.1821289</ele>
        <time>2013-10-31T09:18:55Z</time>
      </trkpt>
      <trkpt lat="44.28237" lon="6.17112">
        <ele>1319.546875</ele>
        <time>2013-10-31T09:19:15Z</time>
      </trkpt>
      <trkpt lat="44.28235" lon="6.17129">
        <ele>1322.911377</ele>
        <time>2013-10-31T09:19:37Z</time>
      </trkpt>
      <trkpt lat="44.28237" lon="6.17162">
        <ele>1325.3146973</ele>
        <time>2013-10-31T09:20:10Z</time>
      </trkpt>
      <trkpt lat="44.28213" lon="6.17177">
        <ele>1328.6794434</ele>
        <time>2013-10-31T09:20:37Z</time>
      </trkpt>
      <trkpt lat="44.28216" lon="6.17187">
        <ele>1332.0439453</ele>
        <time>2013-10-31T09:20:58Z</time>
      </trkpt>
      <trkpt lat="44.28217" lon="6.17192">
        <ele>1334.9279785</ele>
        <time>2013-10-31T09:21:18Z</time>
      </trkpt>
      <trkpt lat="44.282" lon="6.17194">
        <ele>1337.8117676</ele>
        <time>2013-10-31T09:21:34Z</time>
      </trkpt>
      <trkpt lat="44.28188" lon="6.17196">
        <ele>1341.1765137</ele>
        <time>2013-10-31T09:21:51Z</time>
      </trkpt>
      <trkpt lat="44.28179" lon="6.17197">
        <ele>1342.1379395</ele>
        <time>2013-10-31T09:21:59Z</time>
      </trkpt>
      <trkpt lat="44.28162" lon="6.17202">
        <ele>1343.0991211</ele>
        <time>2013-10-31T09:22:16Z</time>
      </trkpt>
      <trkpt lat="44.28164" lon="6.17206">
        <ele>1343.579834</ele>
        <time>2013-10-31T09:22:20Z</time>
      </trkpt>
      <trkpt lat="44.28158" lon="6.1721">
        <ele>1345.0217285</ele>
        <time>2013-10-31T09:22:26Z</time>
      </trkpt>
      <trkpt lat="44.28148" lon="6.17216">
        <ele>1346.4638672</ele>
        <time>2013-10-31T09:22:37Z</time>
      </trkpt>
      <trkpt lat="44.28139" lon="6.17227">
        <ele>1348.3862305</ele>
        <time>2013-10-31T09:22:55Z</time>
      </trkpt>
      <trkpt lat="44.28126" lon="6.17231">
        <ele>1349.8283691</ele>
        <time>2013-10-31T09:23:07Z</time>
      </trkpt>
      <trkpt lat="44.28116" lon="6.17245">
        <ele>1350.309082</ele>
        <time>2013-10-31T09:23:21Z</time>
      </trkpt>
      <trkpt lat="44.28113" lon="6.17247">
        <ele>1350.309082</ele>
        <time>2013-10-31T09:23:25Z</time>
      </trkpt>
      <trkpt lat="44.28111" lon="6.17253">
        <ele>1349.8283691</ele>
        <time>2013-10-31T09:23:28Z</time>
      </trkpt>
      <trkpt lat="44.28109" lon="6.17258">
        <ele>1349.8283691</ele>
        <time>2013-10-31T09:23:33Z</time>
      </trkpt>
      <trkpt lat="44.28103" lon="6.17271">
        <ele>1350.309082</ele>
        <time>2013-10-31T09:23:45Z</time>
      </trkpt>
      <trkpt lat="44.28099" lon="6.17277">
        <ele>1350.7895508</ele>
        <time>2013-10-31T09:23:49Z</time>
      </trkpt>
      <trkpt lat="44.28099" lon="6.17297">
        <ele>1352.2314453</ele>
        <time>2013-10-31T09:24:03Z</time>
      </trkpt>
      <trkpt lat="44.28098" lon="6.17302">
        <ele>1351.7509766</ele>
        <time>2013-10-31T09:24:16Z</time>
      </trkpt>
      <trkpt lat="44.28095" lon="6.17325">
        <ele>1351.2702637</ele>
        <time>2013-10-31T09:24:36Z</time>
      </trkpt>
      <trkpt lat="44.28097" lon="6.1734">
        <ele>1351.2702637</ele>
        <time>2013-10-31T09:24:49Z</time>
      </trkpt>
      <trkpt lat="44.28088" lon="6.17354">
        <ele>1349.3476563</ele>
        <time>2013-10-31T09:25:03Z</time>
      </trkpt>
      <trkpt lat="44.28083" lon="6.17358">
        <ele>1348.8669434</ele>
        <time>2013-10-31T09:25:09Z</time>
      </trkpt>
      <trkpt lat="44.28078" lon="6.17366">
        <ele>1348.8669434</ele>
        <time>2013-10-31T09:25:17Z</time>
      </trkpt>
      <trkpt lat="44.28071" lon="6.17369">
        <ele>1348.8669434</ele>
        <time>2013-10-31T09:25:25Z</time>
      </trkpt>
      <trkpt lat="44.28067" lon="6.17377">
        <ele>1347.4250488</ele>
        <time>2013-10-31T09:25:33Z</time>
      </trkpt>
      <trkpt lat="44.28075" lon="6.17408">
        <ele>1348.8669434</ele>
        <time>2013-10-31T09:25:54Z</time>
      </trkpt>
      <trkpt lat="44.2807" lon="6.17418">
        <ele>1352.2314453</ele>
        <time>2013-10-31T09:26:13Z</time>
      </trkpt>
      <trkpt lat="44.28066" lon="6.17425">
        <ele>1354.1542969</ele>
        <time>2013-10-31T09:26:52Z</time>
      </trkpt>
      <trkpt lat="44.28101" lon="6.17446">
        <ele>1356.0769043</ele>
        <time>2013-10-31T09:28:36Z</time>
      </trkpt>
      <trkpt lat="44.28106" lon="6.1745">
        <ele>1356.0769043</ele>
        <time>2013-10-31T09:29:56Z</time>
      </trkpt>
      <trkpt lat="44.28105" lon="6.17447">
        <ele>1356.0769043</ele>
        <time>2013-10-31T09:30:33Z</time>
      </trkpt>
      <trkpt lat="44.28096" lon="6.17457">
        <ele>1356.0769043</ele>
        <time>2013-10-31T09:31:24Z</time>
      </trkpt>
      <trkpt lat="44.28111" lon="6.17456">
        <ele>1356.5576172</ele>
        <time>2013-10-31T09:32:05Z</time>
      </trkpt>
      <trkpt lat="44.28126" lon="6.1747">
        <ele>1357.519043</ele>
        <time>2013-10-31T09:35:20Z</time>
      </trkpt>
      <trkpt lat="44.2813" lon="6.17472">
        <ele>1360.8835449</ele>
        <time>2013-10-31T09:35:45Z</time>
      </trkpt>
      <trkpt lat="44.28141" lon="6.17462">
        <ele>1364.2480469</ele>
        <time>2013-10-31T09:36:07Z</time>
      </trkpt>
      <trkpt lat="44.28142" lon="6.17445">
        <ele>1367.6125488</ele>
        <time>2013-10-31T09:36:29Z</time>
      </trkpt>
      <trkpt lat="44.28146" lon="6.17469">
        <ele>1370.496582</ele>
        <time>2013-10-31T09:36:59Z</time>
      </trkpt>
      <trkpt lat="44.28146" lon="6.17492">
        <ele>1373.8613281</ele>
        <time>2013-10-31T09:37:33Z</time>
      </trkpt>
      <trkpt lat="44.28141" lon="6.175">
        <ele>1377.2260742</ele>
        <time>2013-10-31T09:37:52Z</time>
      </trkpt>
      <trkpt lat="44.28135" lon="6.17532">
        <ele>1380.5905762</ele>
        <time>2013-10-31T09:38:24Z</time>
      </trkpt>
      <trkpt lat="44.28138" lon="6.17545">
        <ele>1383.4743652</ele>
        <time>2013-10-31T09:38:45Z</time>
      </trkpt>
      <trkpt lat="44.28145" lon="6.17556">
        <ele>1386.3583984</ele>
        <time>2013-10-31T09:39:06Z</time>
      </trkpt>
      <trkpt lat="44.28147" lon="6.17556">
        <ele>1389.7231445</ele>
        <time>2013-10-31T09:39:29Z</time>
      </trkpt>
      <trkpt lat="44.28145" lon="6.17573">
        <ele>1393.0876465</ele>
        <time>2013-10-31T09:39:52Z</time>
      </trkpt>
      <trkpt lat="44.28156" lon="6.17563">
        <ele>1395.0102539</ele>
        <time>2013-10-31T09:40:19Z</time>
      </trkpt>
      <trkpt lat="44.28152" lon="6.17553">
        <ele>1398.8554688</ele>
        <time>2013-10-31T09:40:41Z</time>
      </trkpt>
      <trkpt lat="44.28156" lon="6.17571">
        <ele>1401.739502</ele>
        <time>2013-10-31T09:41:06Z</time>
      </trkpt>
      <trkpt lat="44.28165" lon="6.17565">
        <ele>1405.104248</ele>
        <time>2013-10-31T09:41:32Z</time>
      </trkpt>
      <trkpt lat="44.28173" lon="6.17588">
        <ele>1408.46875</ele>
        <time>2013-10-31T09:41:57Z</time>
      </trkpt>
      <trkpt lat="44.2818" lon="6.17607">
        <ele>1411.8334961</ele>
        <time>2013-10-31T09:42:27Z</time>
      </trkpt>
      <trkpt lat="44.28183" lon="6.17597">
        <ele>1414.7172852</ele>
        <time>2013-10-31T09:42:44Z</time>
      </trkpt>
      <trkpt lat="44.28184" lon="6.17576">
        <ele>1418.0817871</ele>
        <time>2013-10-31T09:43:09Z</time>
      </trkpt>
      <trkpt lat="44.28187" lon="6.17591">
        <ele>1421.4465332</ele>
        <time>2013-10-31T09:43:32Z</time>
      </trkpt>
      <trkpt lat="44.28202" lon="6.17591">
        <ele>1424.3305664</ele>
        <time>2013-10-31T09:43:51Z</time>
      </trkpt>
      <trkpt lat="44.28201" lon="6.1757">
        <ele>1427.6950684</ele>
        <time>2013-10-31T09:44:16Z</time>
      </trkpt>
      <trkpt lat="44.28201" lon="6.17569">
        <ele>1430.5791016</ele>
        <time>2013-10-31T09:44:35Z</time>
      </trkpt>
      <trkpt lat="44.28206" lon="6.17589">
        <ele>1433.9436035</ele>
        <time>2013-10-31T09:44:56Z</time>
      </trkpt>
      <trkpt lat="44.28211" lon="6.17607">
        <ele>1437.3083496</ele>
        <time>2013-10-31T09:45:17Z</time>
      </trkpt>
      <trkpt lat="44.28219" lon="6.17627">
        <ele>1440.1923828</ele>
        <time>2013-10-31T09:45:39Z</time>
      </trkpt>
      <trkpt lat="44.28229" lon="6.1762">
        <ele>1443.5568848</ele>
        <time>2013-10-31T09:46:03Z</time>
      </trkpt>
      <trkpt lat="44.28222" lon="6.17593">
        <ele>1446.440918</ele>
        <time>2013-10-31T09:46:28Z</time>
      </trkpt>
      <trkpt lat="44.28221" lon="6.17615">
        <ele>1449.8054199</ele>
        <time>2013-10-31T09:46:53Z</time>
      </trkpt>
      <trkpt lat="44.28224" lon="6.17632">
        <ele>1453.170166</ele>
        <time>2013-10-31T09:47:12Z</time>
      </trkpt>
      <trkpt lat="44.28222" lon="6.17651">
        <ele>1456.0539551</ele>
        <time>2013-10-31T09:47:33Z</time>
      </trkpt>
      <trkpt lat="44.28226" lon="6.17663">
        <ele>1459.4187012</ele>
        <time>2013-10-31T09:47:52Z</time>
      </trkpt>
      <trkpt lat="44.28235" lon="6.17672">
        <ele>1462.7832031</ele>
        <time>2013-10-31T09:48:10Z</time>
      </trkpt>
      <trkpt lat="44.28238" lon="6.17688">
        <ele>1465.6672363</ele>
        <time>2013-10-31T09:48:31Z</time>
      </trkpt>
      <trkpt lat="44.28241" lon="6.1769">
        <ele>1469.0319824</ele>
        <time>2013-10-31T09:48:58Z</time>
      </trkpt>
      <trkpt lat="44.28242" lon="6.17694">
        <ele>1472.3964844</ele>
        <time>2013-10-31T09:49:19Z</time>
      </trkpt>
      <trkpt lat="44.28249" lon="6.17686">
        <ele>1475.2802734</ele>
        <time>2013-10-31T09:49:38Z</time>
      </trkpt>
      <trkpt lat="44.28252" lon="6.17683">
        <ele>1478.6450195</ele>
        <time>2013-10-31T09:49:57Z</time>
      </trkpt>
      <trkpt lat="44.28257" lon="6.17676">
        <ele>1481.5288086</ele>
        <time>2013-10-31T09:50:18Z</time>
      </trkpt>
      <trkpt lat="44.28249" lon="6.17695">
        <ele>1482.9707031</ele>
        <time>2013-10-31T09:51:03Z</time>
      </trkpt>
      <trkpt lat="44.28257" lon="6.17722">
        <ele>1483.9321289</ele>
        <time>2013-10-31T09:51:39Z</time>
      </trkpt>
      <trkpt lat="44.28245" lon="6.1771">
        <ele>1485.3742676</ele>
        <time>2013-10-31T09:52:14Z</time>
      </trkpt>
      <trkpt lat="44.28241" lon="6.17726">
        <ele>1488.2583008</ele>
        <time>2013-10-31T09:52:34Z</time>
      </trkpt>
      <trkpt lat="44.2824" lon="6.17735">
        <ele>1491.6228027</ele>
        <time>2013-10-31T09:52:52Z</time>
      </trkpt>
      <trkpt lat="44.2824" lon="6.17742">
        <ele>1494.5065918</ele>
        <time>2013-10-31T09:53:11Z</time>
      </trkpt>
      <trkpt lat="44.28234" lon="6.17759">
        <ele>1497.8713379</ele>
        <time>2013-10-31T09:53:32Z</time>
      </trkpt>
      <trkpt lat="44.28234" lon="6.17775">
        <ele>1500.7553711</ele>
        <time>2013-10-31T09:53:55Z</time>
      </trkpt>
      <trkpt lat="44.28233" lon="6.17779">
        <ele>1504.1201172</ele>
        <time>2013-10-31T09:54:18Z</time>
      </trkpt>
      <trkpt lat="44.28239" lon="6.1779">
        <ele>1507.0039063</ele>
        <time>2013-10-31T09:54:35Z</time>
      </trkpt>
      <trkpt lat="44.28234" lon="6.17802">
        <ele>1510.3684082</ele>
        <time>2013-10-31T09:54:57Z</time>
      </trkpt>
      <trkpt lat="44.28211" lon="6.17825">
        <ele>1513.2524414</ele>
        <time>2013-10-31T09:55:32Z</time>
      </trkpt>
      <trkpt lat="44.282" lon="6.17841">
        <ele>1516.6171875</ele>
        <time>2013-10-31T09:56:00Z</time>
      </trkpt>
      <trkpt lat="44.28189" lon="6.17848">
        <ele>1519.9816895</ele>
        <time>2013-10-31T09:56:21Z</time>
      </trkpt>
      <trkpt lat="44.28179" lon="6.17856">
        <ele>1522.8657227</ele>
        <time>2013-10-31T09:56:42Z</time>
      </trkpt>
      <trkpt lat="44.28179" lon="6.17865">
        <ele>1526.2302246</ele>
        <time>2013-10-31T09:57:05Z</time>
      </trkpt>
      <trkpt lat="44.2817" lon="6.17874">
        <ele>1529.1140137</ele>
        <time>2013-10-31T09:57:23Z</time>
      </trkpt>
      <trkpt lat="44.28166" lon="6.17881">
        <ele>1531.9980469</ele>
        <time>2013-10-31T09:57:40Z</time>
      </trkpt>
      <trkpt lat="44.28161" lon="6.17891">
        <ele>1535.362793</ele>
        <time>2013-10-31T09:58:03Z</time>
      </trkpt>
      <trkpt lat="44.28156" lon="6.17894">
        <ele>1538.7275391</ele>
        <time>2013-10-31T09:58:17Z</time>
      </trkpt>
      <trkpt lat="44.28157" lon="6.17906">
        <ele>1542.092041</ele>
        <time>2013-10-31T09:58:37Z</time>
      </trkpt>
      <trkpt lat="44.28162" lon="6.17913">
        <ele>1544.4951172</ele>
        <time>2013-10-31T09:59:04Z</time>
      </trkpt>
      <trkpt lat="44.28153" lon="6.17929">
        <ele>1544.4951172</ele>
        <time>2013-10-31T10:01:29Z</time>
      </trkpt>
      <trkpt lat="44.28149" lon="6.17923">
        <ele>1545.9372559</ele>
        <time>2013-10-31T10:04:08Z</time>
      </trkpt>
      <trkpt lat="44.28149" lon="6.17924">
        <ele>1545.9372559</ele>
        <time>2013-10-31T10:04:54Z</time>
      </trkpt>
      <trkpt lat="44.28139" lon="6.17931">
        <ele>1545.9372559</ele>
        <time>2013-10-31T10:05:10Z</time>
      </trkpt>
      <trkpt lat="44.28139" lon="6.17932">
        <ele>1546.4179688</ele>
        <time>2013-10-31T10:05:11Z</time>
      </trkpt>
      <trkpt lat="44.28133" lon="6.17954">
        <ele>1545.9372559</ele>
        <time>2013-10-31T10:05:31Z</time>
      </trkpt>
      <trkpt lat="44.28126" lon="6.17971">
        <ele>1545.456543</ele>
        <time>2013-10-31T10:05:49Z</time>
      </trkpt>
      <trkpt lat="44.28118" lon="6.1799">
        <ele>1545.456543</ele>
        <time>2013-10-31T10:06:07Z</time>
      </trkpt>
      <trkpt lat="44.28115" lon="6.17997">
        <ele>1545.456543</ele>
        <time>2013-10-31T10:06:13Z</time>
      </trkpt>
      <trkpt lat="44.28113" lon="6.18006">
        <ele>1545.456543</ele>
        <time>2013-10-31T10:06:20Z</time>
      </trkpt>
      <trkpt lat="44.28105" lon="6.18018">
        <ele>1544.4951172</ele>
        <time>2013-10-31T10:06:37Z</time>
      </trkpt>
      <trkpt lat="44.28103" lon="6.1802">
        <ele>1544.9758301</ele>
        <time>2013-10-31T10:06:39Z</time>
      </trkpt>
      <trkpt lat="44.28101" lon="6.1804">
        <ele>1544.0146484</ele>
        <time>2013-10-31T10:06:54Z</time>
      </trkpt>
      <trkpt lat="44.28106" lon="6.18062">
        <ele>1544.0146484</ele>
        <time>2013-10-31T10:07:09Z</time>
      </trkpt>
      <trkpt lat="44.28105" lon="6.18081">
        <ele>1544.4951172</ele>
        <time>2013-10-31T10:07:22Z</time>
      </trkpt>
      <trkpt lat="44.28105" lon="6.18098">
        <ele>1544.9758301</ele>
        <time>2013-10-31T10:07:34Z</time>
      </trkpt>
      <trkpt lat="44.28103" lon="6.18108">
        <ele>1544.4951172</ele>
        <time>2013-10-31T10:07:42Z</time>
      </trkpt>
      <trkpt lat="44.28096" lon="6.18119">
        <ele>1544.0146484</ele>
        <time>2013-10-31T10:07:54Z</time>
      </trkpt>
      <trkpt lat="44.28101" lon="6.18128">
        <ele>1544.0146484</ele>
        <time>2013-10-31T10:08:24Z</time>
      </trkpt>
      <trkpt lat="44.28094" lon="6.18141">
        <ele>1544.4951172</ele>
        <time>2013-10-31T10:08:39Z</time>
      </trkpt>
      <trkpt lat="44.28095" lon="6.18166">
        <ele>1545.456543</ele>
        <time>2013-10-31T10:08:59Z</time>
      </trkpt>
      <trkpt lat="44.28101" lon="6.18196">
        <ele>1545.456543</ele>
        <time>2013-10-31T10:09:16Z</time>
      </trkpt>
      <trkpt lat="44.28109" lon="6.18218">
        <ele>1545.456543</ele>
        <time>2013-10-31T10:09:30Z</time>
      </trkpt>
      <trkpt lat="44.28115" lon="6.18233">
        <ele>1545.456543</ele>
        <time>2013-10-31T10:09:44Z</time>
      </trkpt>
      <trkpt lat="44.2812" lon="6.18237">
        <ele>1544.9758301</ele>
        <time>2013-10-31T10:09:56Z</time>
      </trkpt>
      <trkpt lat="44.28122" lon="6.18238">
        <ele>1544.4951172</ele>
        <time>2013-10-31T10:10:07Z</time>
      </trkpt>
      <trkpt lat="44.28131" lon="6.1824">
        <ele>1545.456543</ele>
        <time>2013-10-31T10:10:15Z</time>
      </trkpt>
      <trkpt lat="44.28136" lon="6.18239">
        <ele>1545.456543</ele>
        <time>2013-10-31T10:10:20Z</time>
      </trkpt>
      <trkpt lat="44.28142" lon="6.18237">
        <ele>1544.4951172</ele>
        <time>2013-10-31T10:10:24Z</time>
      </trkpt>
      <trkpt lat="44.28143" lon="6.18236">
        <ele>1545.456543</ele>
        <time>2013-10-31T10:10:40Z</time>
      </trkpt>
      <trkpt lat="44.28138" lon="6.18243">
        <ele>1545.456543</ele>
        <time>2013-10-31T10:10:49Z</time>
      </trkpt>
      <trkpt lat="44.28132" lon="6.18235">
        <ele>1545.456543</ele>
        <time>2013-10-31T10:11:02Z</time>
      </trkpt>
      <trkpt lat="44.2813" lon="6.18225">
        <ele>1545.456543</ele>
        <time>2013-10-31T10:11:14Z</time>
      </trkpt>
      <trkpt lat="44.28143" lon="6.1823">
        <ele>1545.456543</ele>
        <time>2013-10-31T10:11:28Z</time>
      </trkpt>
      <trkpt lat="44.28152" lon="6.18245">
        <ele>1545.9372559</ele>
        <time>2013-10-31T10:11:41Z</time>
      </trkpt>
      <trkpt lat="44.28147" lon="6.18254">
        <ele>1545.9372559</ele>
        <time>2013-10-31T10:11:51Z</time>
      </trkpt>
      <trkpt lat="44.28153" lon="6.18268">
        <ele>1547.8598633</ele>
        <time>2013-10-31T10:12:04Z</time>
      </trkpt>
      <trkpt lat="44.28156" lon="6.18269">
        <ele>1547.3791504</ele>
        <time>2013-10-31T10:12:08Z</time>
      </trkpt>
      <trkpt lat="44.28163" lon="6.18276">
        <ele>1547.8598633</ele>
        <time>2013-10-31T10:12:18Z</time>
      </trkpt>
      <trkpt lat="44.28168" lon="6.18288">
        <ele>1548.8212891</ele>
        <time>2013-10-31T10:12:32Z</time>
      </trkpt>
      <trkpt lat="44.28165" lon="6.18287">
        <ele>1548.3405762</ele>
        <time>2013-10-31T10:12:43Z</time>
      </trkpt>
      <trkpt lat="44.28188" lon="6.18304">
        <ele>1548.3405762</ele>
        <time>2013-10-31T10:12:55Z</time>
      </trkpt>
      <trkpt lat="44.28177" lon="6.18319">
        <ele>1549.7827148</ele>
        <time>2013-10-31T10:13:13Z</time>
      </trkpt>
      <trkpt lat="44.28148" lon="6.18334">
        <ele>1552.185791</ele>
        <time>2013-10-31T10:13:40Z</time>
      </trkpt>
      <trkpt lat="44.28128" lon="6.18338">
        <ele>1554.1086426</ele>
        <time>2013-10-31T10:14:04Z</time>
      </trkpt>
      <trkpt lat="44.28099" lon="6.18365">
        <ele>1556.9924316</ele>
        <time>2013-10-31T10:14:48Z</time>
      </trkpt>
      <trkpt lat="44.28092" lon="6.18388">
        <ele>1558.4343262</ele>
        <time>2013-10-31T10:15:06Z</time>
      </trkpt>
      <trkpt lat="44.28085" lon="6.18408">
        <ele>1558.9150391</ele>
        <time>2013-10-31T10:15:24Z</time>
      </trkpt>
      <trkpt lat="44.28085" lon="6.18429">
        <ele>1560.3569336</ele>
        <time>2013-10-31T10:15:39Z</time>
      </trkpt>
      <trkpt lat="44.28084" lon="6.1847">
        <ele>1561.7990723</ele>
        <time>2013-10-31T10:16:05Z</time>
      </trkpt>
      <trkpt lat="44.28071" lon="6.18493">
        <ele>1563.2409668</ele>
        <time>2013-10-31T10:16:29Z</time>
      </trkpt>
      <trkpt lat="44.28061" lon="6.18516">
        <ele>1563.7214355</ele>
        <time>2013-10-31T10:16:50Z</time>
      </trkpt>
      <trkpt lat="44.28044" lon="6.1854">
        <ele>1563.7214355</ele>
        <time>2013-10-31T10:17:11Z</time>
      </trkpt>
      <trkpt lat="44.28031" lon="6.18578">
        <ele>1563.7214355</ele>
        <time>2013-10-31T10:17:34Z</time>
      </trkpt>
      <trkpt lat="44.28015" lon="6.186">
        <ele>1563.2409668</ele>
        <time>2013-10-31T10:17:54Z</time>
      </trkpt>
      <trkpt lat="44.28005" lon="6.18623">
        <ele>1562.7602539</ele>
        <time>2013-10-31T10:18:13Z</time>
      </trkpt>
      <trkpt lat="44.27979" lon="6.18653">
        <ele>1562.279541</ele>
        <time>2013-10-31T10:18:38Z</time>
      </trkpt>
      <trkpt lat="44.2798" lon="6.18667">
        <ele>1561.7990723</ele>
        <time>2013-10-31T10:18:56Z</time>
      </trkpt>
      <trkpt lat="44.27983" lon="6.18668">
        <ele>1561.7990723</ele>
        <time>2013-10-31T10:18:57Z</time>
      </trkpt>
      <trkpt lat="44.28002" lon="6.18657">
        <ele>1562.279541</ele>
        <time>2013-10-31T10:19:11Z</time>
      </trkpt>
      <trkpt lat="44.28037" lon="6.18633">
        <ele>1563.7214355</ele>
        <time>2013-10-31T10:19:43Z</time>
      </trkpt>
      <trkpt lat="44.28048" lon="6.18641">
        <ele>1564.6831055</ele>
        <time>2013-10-31T10:20:05Z</time>
      </trkpt>
      <trkpt lat="44.28067" lon="6.18648">
        <ele>1564.6831055</ele>
        <time>2013-10-31T10:20:23Z</time>
      </trkpt>
      <trkpt lat="44.28084" lon="6.18657">
        <ele>1565.6445313</ele>
        <time>2013-10-31T10:20:43Z</time>
      </trkpt>
      <trkpt lat="44.281" lon="6.18659">
        <ele>1568.0476074</ele>
        <time>2013-10-31T10:21:13Z</time>
      </trkpt>
      <trkpt lat="44.28117" lon="6.18666">
        <ele>1569.4897461</ele>
        <time>2013-10-31T10:21:31Z</time>
      </trkpt>
      <trkpt lat="44.28144" lon="6.18671">
        <ele>1571.8928223</ele>
        <time>2013-10-31T10:21:54Z</time>
      </trkpt>
      <trkpt lat="44.28171" lon="6.18678">
        <ele>1573.8154297</ele>
        <time>2013-10-31T10:22:17Z</time>
      </trkpt>
      <trkpt lat="44.28168" lon="6.187">
        <ele>1574.7768555</ele>
        <time>2013-10-31T10:22:35Z</time>
      </trkpt>
      <trkpt lat="44.28163" lon="6.18724">
        <ele>1576.21875</ele>
        <time>2013-10-31T10:22:51Z</time>
      </trkpt>
      <trkpt lat="44.2816" lon="6.18754">
        <ele>1578.6220703</ele>
        <time>2013-10-31T10:23:13Z</time>
      </trkpt>
      <trkpt lat="44.28143" lon="6.18759">
        <ele>1580.064209</ele>
        <time>2013-10-31T10:23:31Z</time>
      </trkpt>
      <trkpt lat="44.2812" lon="6.18739">
        <ele>1582.947998</ele>
        <time>2013-10-31T10:23:57Z</time>
      </trkpt>
      <trkpt lat="44.28101" lon="6.18767">
        <ele>1584.8708496</ele>
        <time>2013-10-31T10:24:24Z</time>
      </trkpt>
      <trkpt lat="44.28092" lon="6.18788">
        <ele>1586.3127441</ele>
        <time>2013-10-31T10:24:40Z</time>
      </trkpt>
      <trkpt lat="44.28082" lon="6.18807">
        <ele>1587.7546387</ele>
        <time>2013-10-31T10:25:00Z</time>
      </trkpt>
      <trkpt lat="44.28067" lon="6.18834">
        <ele>1588.7160645</ele>
        <time>2013-10-31T10:25:21Z</time>
      </trkpt>
      <trkpt lat="44.28053" lon="6.18825">
        <ele>1589.6772461</ele>
        <time>2013-10-31T10:26:26Z</time>
      </trkpt>
      <trkpt lat="44.28051" lon="6.18821">
        <ele>1589.6772461</ele>
        <time>2013-10-31T10:26:28Z</time>
      </trkpt>
      <trkpt lat="44.28028" lon="6.18799">
        <ele>1591.5998535</ele>
        <time>2013-10-31T10:26:55Z</time>
      </trkpt>
      <trkpt lat="44.28006" lon="6.18816">
        <ele>1594.0031738</ele>
        <time>2013-10-31T10:27:20Z</time>
      </trkpt>
      <trkpt lat="44.27994" lon="6.18826">
        <ele>1595.9257813</ele>
        <time>2013-10-31T10:27:41Z</time>
      </trkpt>
      <trkpt lat="44.27984" lon="6.18826">
        <ele>1595.9257813</ele>
        <time>2013-10-31T10:28:00Z</time>
      </trkpt>
      <trkpt lat="44.27975" lon="6.18833">
        <ele>1597.3679199</ele>
        <time>2013-10-31T10:28:22Z</time>
      </trkpt>
      <trkpt lat="44.27968" lon="6.18846">
        <ele>1599.2905273</ele>
        <time>2013-10-31T10:28:39Z</time>
      </trkpt>
      <trkpt lat="44.27956" lon="6.18858">
        <ele>1601.2131348</ele>
        <time>2013-10-31T10:28:57Z</time>
      </trkpt>
      <trkpt lat="44.27944" lon="6.18873">
        <ele>1603.6164551</ele>
        <time>2013-10-31T10:29:15Z</time>
      </trkpt>
      <trkpt lat="44.27931" lon="6.189">
        <ele>1606.0195313</ele>
        <time>2013-10-31T10:29:39Z</time>
      </trkpt>
      <trkpt lat="44.27919" lon="6.18914">
        <ele>1607.9423828</ele>
        <time>2013-10-31T10:29:57Z</time>
      </trkpt>
      <trkpt lat="44.27899" lon="6.18926">
        <ele>1609.8647461</ele>
        <time>2013-10-31T10:30:17Z</time>
      </trkpt>
      <trkpt lat="44.27877" lon="6.18943">
        <ele>1612.2683105</ele>
        <time>2013-10-31T10:30:41Z</time>
      </trkpt>
      <trkpt lat="44.27861" lon="6.18945">
        <ele>1613.7102051</ele>
        <time>2013-10-31T10:30:58Z</time>
      </trkpt>
      <trkpt lat="44.27835" lon="6.18935">
        <ele>1616.5942383</ele>
        <time>2013-10-31T10:31:24Z</time>
      </trkpt>
      <trkpt lat="44.2782" lon="6.18945">
        <ele>1618.5168457</ele>
        <time>2013-10-31T10:31:49Z</time>
      </trkpt>
      <trkpt lat="44.27805" lon="6.18974">
        <ele>1620.920166</ele>
        <time>2013-10-31T10:32:15Z</time>
      </trkpt>
      <trkpt lat="44.27797" lon="6.18994">
        <ele>1622.8427734</ele>
        <time>2013-10-31T10:32:34Z</time>
      </trkpt>
      <trkpt lat="44.27805" lon="6.19021">
        <ele>1624.284668</ele>
        <time>2013-10-31T10:32:55Z</time>
      </trkpt>
      <trkpt lat="44.27806" lon="6.19022">
        <ele>1624.284668</ele>
        <time>2013-10-31T10:32:56Z</time>
      </trkpt>
      <trkpt lat="44.27814" lon="6.19052">
        <ele>1623.3234863</ele>
        <time>2013-10-31T10:33:18Z</time>
      </trkpt>
      <trkpt lat="44.27825" lon="6.19064">
        <ele>1623.8039551</ele>
        <time>2013-10-31T10:33:38Z</time>
      </trkpt>
      <trkpt lat="44.27827" lon="6.19104">
        <ele>1624.284668</ele>
        <time>2013-10-31T10:34:04Z</time>
      </trkpt>
      <trkpt lat="44.27822" lon="6.19133">
        <ele>1624.7653809</ele>
        <time>2013-10-31T10:34:23Z</time>
      </trkpt>
      <trkpt lat="44.27821" lon="6.19168">
        <ele>1625.2458496</ele>
        <time>2013-10-31T10:34:42Z</time>
      </trkpt>
      <trkpt lat="44.2781" lon="6.19192">
        <ele>1626.2072754</ele>
        <time>2013-10-31T10:35:01Z</time>
      </trkpt>
      <trkpt lat="44.27787" lon="6.19198">
        <ele>1626.6879883</ele>
        <time>2013-10-31T10:35:10Z</time>
      </trkpt>
      <trkpt lat="44.27778" lon="6.19199">
        <ele>1627.1687012</ele>
        <time>2013-10-31T10:35:17Z</time>
      </trkpt>
      <trkpt lat="44.27767" lon="6.19207">
        <ele>1627.6491699</ele>
        <time>2013-10-31T10:35:30Z</time>
      </trkpt>
      <trkpt lat="44.27751" lon="6.19223">
        <ele>1629.0913086</ele>
        <time>2013-10-31T10:35:48Z</time>
      </trkpt>
      <trkpt lat="44.27737" lon="6.19238">
        <ele>1630.0527344</ele>
        <time>2013-10-31T10:36:02Z</time>
      </trkpt>
      <trkpt lat="44.27721" lon="6.19223">
        <ele>1631.4946289</ele>
        <time>2013-10-31T10:36:17Z</time>
      </trkpt>
      <trkpt lat="44.277" lon="6.19212">
        <ele>1633.4172363</ele>
        <time>2013-10-31T10:36:33Z</time>
      </trkpt>
      <trkpt lat="44.27699" lon="6.19235">
        <ele>1634.859375</ele>
        <time>2013-10-31T10:36:49Z</time>
      </trkpt>
      <trkpt lat="44.27699" lon="6.19261">
        <ele>1636.3012695</ele>
        <time>2013-10-31T10:37:03Z</time>
      </trkpt>
      <trkpt lat="44.27685" lon="6.19272">
        <ele>1637.2624512</ele>
        <time>2013-10-31T10:37:16Z</time>
      </trkpt>
      <trkpt lat="44.27673" lon="6.19287">
        <ele>1638.223877</ele>
        <time>2013-10-31T10:37:30Z</time>
      </trkpt>
      <trkpt lat="44.2764" lon="6.19266">
        <ele>1640.1464844</ele>
        <time>2013-10-31T10:37:58Z</time>
      </trkpt>
      <trkpt lat="44.27635" lon="6.19208">
        <ele>1643.5109863</ele>
        <time>2013-10-31T10:38:29Z</time>
      </trkpt>
      <trkpt lat="44.27636" lon="6.1917">
        <ele>1644.953125</ele>
        <time>2013-10-31T10:38:55Z</time>
      </trkpt>
      <trkpt lat="44.27637" lon="6.19162">
        <ele>1645.9145508</ele>
        <time>2013-10-31T10:39:08Z</time>
      </trkpt>
      <trkpt lat="44.2764" lon="6.19134">
        <ele>1646.8757324</ele>
        <time>2013-10-31T10:39:29Z</time>
      </trkpt>
      <trkpt lat="44.27636" lon="6.19104">
        <ele>1648.317627</ele>
        <time>2013-10-31T10:39:53Z</time>
      </trkpt>
      <trkpt lat="44.27616" lon="6.19061">
        <ele>1650.7209473</ele>
        <time>2013-10-31T10:40:20Z</time>
      </trkpt>
      <trkpt lat="44.27616" lon="6.1906">
        <ele>1650.7209473</ele>
        <time>2013-10-31T10:40:21Z</time>
      </trkpt>
      <trkpt lat="44.27625" lon="6.19045">
        <ele>1652.1628418</ele>
        <time>2013-10-31T10:40:35Z</time>
      </trkpt>
      <trkpt lat="44.2765" lon="6.19051">
        <ele>1652.6435547</ele>
        <time>2013-10-31T10:40:57Z</time>
      </trkpt>
      <trkpt lat="44.27658" lon="6.19038">
        <ele>1653.6049805</ele>
        <time>2013-10-31T10:41:16Z</time>
      </trkpt>
      <trkpt lat="44.27662" lon="6.19008">
        <ele>1656.0080566</ele>
        <time>2013-10-31T10:41:38Z</time>
      </trkpt>
      <trkpt lat="44.27663" lon="6.18975">
        <ele>1657.4501953</ele>
        <time>2013-10-31T10:42:02Z</time>
      </trkpt>
      <trkpt lat="44.27664" lon="6.18946">
        <ele>1659.3728027</ele>
        <time>2013-10-31T10:42:26Z</time>
      </trkpt>
      <trkpt lat="44.2765" lon="6.18938">
        <ele>1661.2956543</ele>
        <time>2013-10-31T10:42:50Z</time>
      </trkpt>
      <trkpt lat="44.2762" lon="6.18938">
        <ele>1663.6987305</ele>
        <time>2013-10-31T10:43:15Z</time>
      </trkpt>
      <trkpt lat="44.27601" lon="6.18945">
        <ele>1665.621582</ele>
        <time>2013-10-31T10:43:35Z</time>
      </trkpt>
      <trkpt lat="44.27574" lon="6.1895">
        <ele>1668.0246582</ele>
        <time>2013-10-31T10:44:00Z</time>
      </trkpt>
      <trkpt lat="44.27552" lon="6.1895">
        <ele>1669.9472656</ele>
        <time>2013-10-31T10:44:22Z</time>
      </trkpt>
      <trkpt lat="44.27549" lon="6.18941">
        <ele>1670.9086914</ele>
        <time>2013-10-31T10:44:29Z</time>
      </trkpt>
      <trkpt lat="44.2754" lon="6.18904">
        <ele>1673.3120117</ele>
        <time>2013-10-31T10:44:53Z</time>
      </trkpt>
      <trkpt lat="44.27524" lon="6.18875">
        <ele>1674.7539063</ele>
        <time>2013-10-31T10:45:14Z</time>
      </trkpt>
      <trkpt lat="44.27506" lon="6.18889">
        <ele>1677.6379395</ele>
        <time>2013-10-31T10:45:37Z</time>
      </trkpt>
      <trkpt lat="44.27488" lon="6.18885">
        <ele>1679.5605469</ele>
        <time>2013-10-31T10:45:54Z</time>
      </trkpt>
      <trkpt lat="44.27477" lon="6.18884">
        <ele>1681.0026855</ele>
        <time>2013-10-31T10:46:06Z</time>
      </trkpt>
      <trkpt lat="44.27467" lon="6.18883">
        <ele>1682.9250488</ele>
        <time>2013-10-31T10:46:20Z</time>
      </trkpt>
      <trkpt lat="44.2746" lon="6.18874">
        <ele>1684.3671875</ele>
        <time>2013-10-31T10:46:31Z</time>
      </trkpt>
      <trkpt lat="44.27459" lon="6.18865">
        <ele>1684.8479004</ele>
        <time>2013-10-31T10:46:38Z</time>
      </trkpt>
      <trkpt lat="44.27467" lon="6.18838">
        <ele>1685.3283691</ele>
        <time>2013-10-31T10:46:52Z</time>
      </trkpt>
      <trkpt lat="44.27467" lon="6.18836">
        <ele>1685.3283691</ele>
        <time>2013-10-31T10:46:53Z</time>
      </trkpt>
      <trkpt lat="44.27467" lon="6.1883">
        <ele>1685.3283691</ele>
        <time>2013-10-31T10:46:57Z</time>
      </trkpt>
      <trkpt lat="44.27462" lon="6.18825">
        <ele>1685.809082</ele>
        <time>2013-10-31T10:47:02Z</time>
      </trkpt>
      <trkpt lat="44.27455" lon="6.18823">
        <ele>1686.2897949</ele>
        <time>2013-10-31T10:47:09Z</time>
      </trkpt>
      <trkpt lat="44.27428" lon="6.18827">
        <ele>1688.6931152</ele>
        <time>2013-10-31T10:47:28Z</time>
      </trkpt>
      <trkpt lat="44.27406" lon="6.18828">
        <ele>1690.1350098</ele>
        <time>2013-10-31T10:47:44Z</time>
      </trkpt>
      <trkpt lat="44.27391" lon="6.1883">
        <ele>1691.0961914</ele>
        <time>2013-10-31T10:47:57Z</time>
      </trkpt>
      <trkpt lat="44.2738" lon="6.18833">
        <ele>1692.0578613</ele>
        <time>2013-10-31T10:48:08Z</time>
      </trkpt>
      <trkpt lat="44.27374" lon="6.18836">
        <ele>1692.5385742</ele>
        <time>2013-10-31T10:48:13Z</time>
      </trkpt>
      <trkpt lat="44.27362" lon="6.18838">
        <ele>1693.9804688</ele>
        <time>2013-10-31T10:48:29Z</time>
      </trkpt>
      <trkpt lat="44.27364" lon="6.18833">
        <ele>1694.4609375</ele>
        <time>2013-10-31T10:48:40Z</time>
      </trkpt>
      <trkpt lat="44.27368" lon="6.18834">
        <ele>1694.4609375</ele>
        <time>2013-10-31T10:49:15Z</time>
      </trkpt>
      <trkpt lat="44.27367" lon="6.1883">
        <ele>1693.4997559</ele>
        <time>2013-10-31T10:50:07Z</time>
      </trkpt>
      <trkpt lat="44.27366" lon="6.18827">
        <ele>1693.9804688</ele>
        <time>2013-10-31T10:50:20Z</time>
      </trkpt>
      <trkpt lat="44.27356" lon="6.18826">
        <ele>1693.4997559</ele>
        <time>2013-10-31T10:50:33Z</time>
      </trkpt>
      <trkpt lat="44.27368" lon="6.18822">
        <ele>1693.9804688</ele>
        <time>2013-10-31T10:50:49Z</time>
      </trkpt>
      <trkpt lat="44.27382" lon="6.18841">
        <ele>1696.8642578</ele>
        <time>2013-10-31T10:51:47Z</time>
      </trkpt>
      <trkpt lat="44.27392" lon="6.18838">
        <ele>1696.8642578</ele>
        <time>2013-10-31T10:52:26Z</time>
      </trkpt>
      <trkpt lat="44.27408" lon="6.18898">
        <ele>1697.3449707</ele>
        <time>2013-10-31T10:52:58Z</time>
      </trkpt>
      <trkpt lat="44.27408" lon="6.18903">
        <ele>1697.8256836</ele>
        <time>2013-10-31T10:53:01Z</time>
      </trkpt>
      <trkpt lat="44.27412" lon="6.18934">
        <ele>1700.7094727</ele>
        <time>2013-10-31T10:53:23Z</time>
      </trkpt>
      <trkpt lat="44.27401" lon="6.18978">
        <ele>1699.748291</ele>
        <time>2013-10-31T10:54:03Z</time>
      </trkpt>
      <trkpt lat="44.27389" lon="6.18988">
        <ele>1701.1901855</ele>
        <time>2013-10-31T10:54:32Z</time>
      </trkpt>
      <trkpt lat="44.27406" lon="6.18993">
        <ele>1704.5546875</ele>
        <time>2013-10-31T10:54:54Z</time>
      </trkpt>
      <trkpt lat="44.27414" lon="6.18995">
        <ele>1707.4387207</ele>
        <time>2013-10-31T10:55:17Z</time>
      </trkpt>
      <trkpt lat="44.27428" lon="6.18997">
        <ele>1710.3227539</ele>
        <time>2013-10-31T10:55:38Z</time>
      </trkpt>
      <trkpt lat="44.27439" lon="6.18988">
        <ele>1713.6872559</ele>
        <time>2013-10-31T10:56:05Z</time>
      </trkpt>
      <trkpt lat="44.27461" lon="6.19021">
        <ele>1717.052002</ele>
        <time>2013-10-31T10:56:35Z</time>
      </trkpt>
      <trkpt lat="44.2745" lon="6.19042">
        <ele>1719.935791</ele>
        <time>2013-10-31T10:56:58Z</time>
      </trkpt>
      <trkpt lat="44.27442" lon="6.19058">
        <ele>1723.3005371</ele>
        <time>2013-10-31T10:57:26Z</time>
      </trkpt>
      <trkpt lat="44.27421" lon="6.19092">
        <ele>1725.7038574</ele>
        <time>2013-10-31T10:58:06Z</time>
      </trkpt>
      <trkpt lat="44.27403" lon="6.19102">
        <ele>1728.1071777</ele>
        <time>2013-10-31T10:58:35Z</time>
      </trkpt>
      <trkpt lat="44.27396" lon="6.19128">
        <ele>1731.4716797</ele>
        <time>2013-10-31T10:59:04Z</time>
      </trkpt>
      <trkpt lat="44.2738" lon="6.19167">
        <ele>1731.9523926</ele>
        <time>2013-10-31T10:59:45Z</time>
      </trkpt>
      <trkpt lat="44.27363" lon="6.19211">
        <ele>1729.5490723</ele>
        <time>2013-10-31T11:00:32Z</time>
      </trkpt>
      <trkpt lat="44.27353" lon="6.19224">
        <ele>1732.9135742</ele>
        <time>2013-10-31T11:00:53Z</time>
      </trkpt>
      <trkpt lat="44.27339" lon="6.19261">
        <ele>1733.875</ele>
        <time>2013-10-31T11:01:35Z</time>
      </trkpt>
      <trkpt lat="44.27322" lon="6.19277">
        <ele>1737.239502</ele>
        <time>2013-10-31T11:02:02Z</time>
      </trkpt>
      <trkpt lat="44.27315" lon="6.19293">
        <ele>1740.1237793</ele>
        <time>2013-10-31T11:02:25Z</time>
      </trkpt>
      <trkpt lat="44.273" lon="6.19328">
        <ele>1742.0463867</ele>
        <time>2013-10-31T11:03:07Z</time>
      </trkpt>
      <trkpt lat="44.27292" lon="6.19347">
        <ele>1745.4108887</ele>
        <time>2013-10-31T11:03:30Z</time>
      </trkpt>
      <trkpt lat="44.27278" lon="6.19366">
        <ele>1748.2946777</ele>
        <time>2013-10-31T11:03:51Z</time>
      </trkpt>
      <trkpt lat="44.27263" lon="6.19376">
        <ele>1751.6594238</ele>
        <time>2013-10-31T11:04:14Z</time>
      </trkpt>
      <trkpt lat="44.27247" lon="6.1939">
        <ele>1754.5432129</ele>
        <time>2013-10-31T11:04:46Z</time>
      </trkpt>
      <trkpt lat="44.27235" lon="6.1941">
        <ele>1757.9082031</ele>
        <time>2013-10-31T11:05:12Z</time>
      </trkpt>
      <trkpt lat="44.27214" lon="6.19418">
        <ele>1759.3500977</ele>
        <time>2013-10-31T11:05:47Z</time>
      </trkpt>
      <trkpt lat="44.27217" lon="6.19419">
        <ele>1759.3500977</ele>
        <time>2013-10-31T11:06:11Z</time>
      </trkpt>
      <trkpt lat="44.272" lon="6.19438">
        <ele>1759.8305664</ele>
        <time>2013-10-31T11:07:05Z</time>
      </trkpt>
      <trkpt lat="44.27201" lon="6.19416">
        <ele>1760.3112793</ele>
        <time>2013-10-31T11:07:28Z</time>
      </trkpt>
      <trkpt lat="44.27223" lon="6.19408">
        <ele>1760.3112793</ele>
        <time>2013-10-31T11:08:29Z</time>
      </trkpt>
      <trkpt lat="44.27223" lon="6.19412">
        <ele>1760.7919922</ele>
        <time>2013-10-31T11:09:41Z</time>
      </trkpt>
      <trkpt lat="44.27179" lon="6.19439">
        <ele>1762.7145996</ele>
        <time>2013-10-31T11:10:47Z</time>
      </trkpt>
      <trkpt lat="44.27166" lon="6.19478">
        <ele>1766.0791016</ele>
        <time>2013-10-31T11:11:20Z</time>
      </trkpt>
      <trkpt lat="44.27163" lon="6.19489">
        <ele>1769.4438477</ele>
        <time>2013-10-31T11:11:36Z</time>
      </trkpt>
      <trkpt lat="44.27171" lon="6.19502">
        <ele>1772.8085938</ele>
        <time>2013-10-31T11:11:57Z</time>
      </trkpt>
      <trkpt lat="44.27177" lon="6.1955">
        <ele>1771.3662109</ele>
        <time>2013-10-31T11:12:32Z</time>
      </trkpt>
      <trkpt lat="44.27181" lon="6.19589">
        <ele>1773.2893066</ele>
        <time>2013-10-31T11:13:08Z</time>
      </trkpt>
      <trkpt lat="44.27199" lon="6.19607">
        <ele>1776.6538086</ele>
        <time>2013-10-31T11:13:39Z</time>
      </trkpt>
      <trkpt lat="44.27208" lon="6.19619">
        <ele>1778.576416</ele>
        <time>2013-10-31T11:14:14Z</time>
      </trkpt>
      <trkpt lat="44.2724" lon="6.19639">
        <ele>1779.5375977</ele>
        <time>2013-10-31T11:14:51Z</time>
      </trkpt>
      <trkpt lat="44.27254" lon="6.19647">
        <ele>1782.9020996</ele>
        <time>2013-10-31T11:15:12Z</time>
      </trkpt>
      <trkpt lat="44.27273" lon="6.19662">
        <ele>1785.7861328</ele>
        <time>2013-10-31T11:15:30Z</time>
      </trkpt>
      <trkpt lat="44.27281" lon="6.1967">
        <ele>1788.1896973</ele>
        <time>2013-10-31T11:15:51Z</time>
      </trkpt>
      <trkpt lat="44.27287" lon="6.19682">
        <ele>1791.5541992</ele>
        <time>2013-10-31T11:16:12Z</time>
      </trkpt>
      <trkpt lat="44.27288" lon="6.19725">
        <ele>1794.4379883</ele>
        <time>2013-10-31T11:16:33Z</time>
      </trkpt>
      <trkpt lat="44.27265" lon="6.19742">
        <ele>1797.8027344</ele>
        <time>2013-10-31T11:16:53Z</time>
      </trkpt>
      <trkpt lat="44.27264" lon="6.19753">
        <ele>1800.6865234</ele>
        <time>2013-10-31T11:17:10Z</time>
      </trkpt>
      <trkpt lat="44.27257" lon="6.19767">
        <ele>1804.0515137</ele>
        <time>2013-10-31T11:17:33Z</time>
      </trkpt>
      <trkpt lat="44.27249" lon="6.1979">
        <ele>1806.9353027</ele>
        <time>2013-10-31T11:17:56Z</time>
      </trkpt>
      <trkpt lat="44.27231" lon="6.19797">
        <ele>1810.2998047</ele>
        <time>2013-10-31T11:18:17Z</time>
      </trkpt>
      <trkpt lat="44.27226" lon="6.19801">
        <ele>1813.6643066</ele>
        <time>2013-10-31T11:18:35Z</time>
      </trkpt>
      <trkpt lat="44.27219" lon="6.19828">
        <ele>1816.5483398</ele>
        <time>2013-10-31T11:19:13Z</time>
      </trkpt>
      <trkpt lat="44.27205" lon="6.19848">
        <ele>1819.9128418</ele>
        <time>2013-10-31T11:19:38Z</time>
      </trkpt>
      <trkpt lat="44.27208" lon="6.19869">
        <ele>1821.3549805</ele>
        <time>2013-10-31T11:20:14Z</time>
      </trkpt>
      <trkpt lat="44.27201" lon="6.19897">
        <ele>1824.2390137</ele>
        <time>2013-10-31T11:20:45Z</time>
      </trkpt>
      <trkpt lat="44.27178" lon="6.19912">
        <ele>1826.642334</ele>
        <time>2013-10-31T11:21:13Z</time>
      </trkpt>
      <trkpt lat="44.27169" lon="6.1992">
        <ele>1828.0842285</ele>
        <time>2013-10-31T11:21:45Z</time>
      </trkpt>
      <trkpt lat="44.27171" lon="6.19914">
        <ele>1828.0842285</ele>
        <time>2013-10-31T11:22:22Z</time>
      </trkpt>
      <trkpt lat="44.27181" lon="6.19897">
        <ele>1828.5649414</ele>
        <time>2013-10-31T11:23:31Z</time>
      </trkpt>
      <trkpt lat="44.27178" lon="6.19907">
        <ele>1829.0454102</ele>
        <time>2013-10-31T11:24:36Z</time>
      </trkpt>
      <trkpt lat="44.27173" lon="6.19901">
        <ele>1830.9682617</ele>
        <time>2013-10-31T11:25:01Z</time>
      </trkpt>
      <trkpt lat="44.27178" lon="6.19881">
        <ele>1831.4487305</ele>
        <time>2013-10-31T11:25:18Z</time>
      </trkpt>
      <trkpt lat="44.27169" lon="6.19897">
        <ele>1831.9294434</ele>
        <time>2013-10-31T11:26:13Z</time>
      </trkpt>
      <trkpt lat="44.27178" lon="6.19882">
        <ele>1831.9294434</ele>
        <time>2013-10-31T11:26:47Z</time>
      </trkpt>
      <trkpt lat="44.27177" lon="6.19883">
        <ele>1832.4101563</ele>
        <time>2013-10-31T11:27:37Z</time>
      </trkpt>
      <trkpt lat="44.27165" lon="6.19899">
        <ele>1833.8520508</ele>
        <time>2013-10-31T11:28:07Z</time>
      </trkpt>
      <trkpt lat="44.27166" lon="6.19901">
        <ele>1832.890625</ele>
        <time>2013-10-31T11:28:30Z</time>
      </trkpt>
      <trkpt lat="44.2716" lon="6.19883">
        <ele>1835.2939453</ele>
        <time>2013-10-31T11:29:10Z</time>
      </trkpt>
      <trkpt lat="44.27143" lon="6.19845">
        <ele>1838.6589355</ele>
        <time>2013-10-31T11:29:35Z</time>
      </trkpt>
      <trkpt lat="44.27135" lon="6.19821">
        <ele>1841.5427246</ele>
        <time>2013-10-31T11:29:58Z</time>
      </trkpt>
      <trkpt lat="44.27118" lon="6.19806">
        <ele>1844.9072266</ele>
        <time>2013-10-31T11:30:21Z</time>
      </trkpt>
      <trkpt lat="44.27111" lon="6.19789">
        <ele>1846.3493652</ele>
        <time>2013-10-31T11:30:39Z</time>
      </trkpt>
      <trkpt lat="44.27099" lon="6.19764">
        <ele>1849.7138672</ele>
        <time>2013-10-31T11:31:05Z</time>
      </trkpt>
      <trkpt lat="44.27082" lon="6.19753">
        <ele>1852.5979004</ele>
        <time>2013-10-31T11:31:29Z</time>
      </trkpt>
      <trkpt lat="44.27071" lon="6.19741">
        <ele>1855.9624023</ele>
        <time>2013-10-31T11:31:52Z</time>
      </trkpt>
      <trkpt lat="44.27053" lon="6.19733">
        <ele>1855.9624023</ele>
        <time>2013-10-31T11:32:13Z</time>
      </trkpt>
      <trkpt lat="44.27034" lon="6.19725">
        <ele>1858.8464355</ele>
        <time>2013-10-31T11:32:36Z</time>
      </trkpt>
      <trkpt lat="44.27015" lon="6.19713">
        <ele>1860.2883301</ele>
        <time>2013-10-31T11:32:58Z</time>
      </trkpt>
      <trkpt lat="44.27001" lon="6.19701">
        <ele>1863.1723633</ele>
        <time>2013-10-31T11:33:22Z</time>
      </trkpt>
      <trkpt lat="44.26984" lon="6.19686">
        <ele>1866.0561523</ele>
        <time>2013-10-31T11:33:43Z</time>
      </trkpt>
      <trkpt lat="44.2697" lon="6.19677">
        <ele>1869.4211426</ele>
        <time>2013-10-31T11:34:04Z</time>
      </trkpt>
      <trkpt lat="44.26945" lon="6.19663">
        <ele>1872.3049316</ele>
        <time>2013-10-31T11:34:36Z</time>
      </trkpt>
      <trkpt lat="44.26934" lon="6.19651">
        <ele>1875.6694336</ele>
        <time>2013-10-31T11:34:57Z</time>
      </trkpt>
      <trkpt lat="44.26926" lon="6.19636">
        <ele>1878.5534668</ele>
        <time>2013-10-31T11:35:20Z</time>
      </trkpt>
      <trkpt lat="44.26913" lon="6.19627">
        <ele>1881.9179688</ele>
        <time>2013-10-31T11:35:44Z</time>
      </trkpt>
      <trkpt lat="44.26889" lon="6.19617">
        <ele>1882.3986816</ele>
        <time>2013-10-31T11:36:15Z</time>
      </trkpt>
      <trkpt lat="44.26882" lon="6.19596">
        <ele>1881.9179688</ele>
        <time>2013-10-31T11:36:46Z</time>
      </trkpt>
      <trkpt lat="44.26871" lon="6.19567">
        <ele>1883.3598633</ele>
        <time>2013-10-31T11:37:16Z</time>
      </trkpt>
      <trkpt lat="44.26858" lon="6.19528">
        <ele>1885.2827148</ele>
        <time>2013-10-31T11:37:52Z</time>
      </trkpt>
      <trkpt lat="44.26852" lon="6.19506">
        <ele>1888.6474609</ele>
        <time>2013-10-31T11:38:16Z</time>
      </trkpt>
      <trkpt lat="44.26846" lon="6.19484">
        <ele>1892.0119629</ele>
        <time>2013-10-31T11:38:42Z</time>
      </trkpt>
      <trkpt lat="44.26843" lon="6.19466">
        <ele>1894.895752</ele>
        <time>2013-10-31T11:39:00Z</time>
      </trkpt>
      <trkpt lat="44.26843" lon="6.19442">
        <ele>1897.7797852</ele>
        <time>2013-10-31T11:39:26Z</time>
      </trkpt>
      <trkpt lat="44.26839" lon="6.19433">
        <ele>1901.1445313</ele>
        <time>2013-10-31T11:39:42Z</time>
      </trkpt>
      <trkpt lat="44.2684" lon="6.19417">
        <ele>1904.5090332</ele>
        <time>2013-10-31T11:40:00Z</time>
      </trkpt>
      <trkpt lat="44.26841" lon="6.19384">
        <ele>1907.8737793</ele>
        <time>2013-10-31T11:40:28Z</time>
      </trkpt>
      <trkpt lat="44.26837" lon="6.19373">
        <ele>1910.7575684</ele>
        <time>2013-10-31T11:40:45Z</time>
      </trkpt>
      <trkpt lat="44.26845" lon="6.19352">
        <ele>1914.1220703</ele>
        <time>2013-10-31T11:41:12Z</time>
      </trkpt>
      <trkpt lat="44.26851" lon="6.19336">
        <ele>1917.0063477</ele>
        <time>2013-10-31T11:41:33Z</time>
      </trkpt>
      <trkpt lat="44.26864" lon="6.19315">
        <ele>1918.9289551</ele>
        <time>2013-10-31T11:41:55Z</time>
      </trkpt>
      <trkpt lat="44.26864" lon="6.19314">
        <ele>1919.409668</ele>
        <time>2013-10-31T11:41:56Z</time>
      </trkpt>
      <trkpt lat="44.26872" lon="6.19302">
        <ele>1922.293457</ele>
        <time>2013-10-31T11:42:13Z</time>
      </trkpt>
      <trkpt lat="44.26877" lon="6.19285">
        <ele>1924.6967773</ele>
        <time>2013-10-31T11:42:44Z</time>
      </trkpt>
      <trkpt lat="44.26882" lon="6.19262">
        <ele>1927.5805664</ele>
        <time>2013-10-31T11:43:12Z</time>
      </trkpt>
      <trkpt lat="44.26887" lon="6.19248">
        <ele>1930.4645996</ele>
        <time>2013-10-31T11:43:34Z</time>
      </trkpt>
      <trkpt lat="44.26896" lon="6.19221">
        <ele>1932.8679199</ele>
        <time>2013-10-31T11:44:11Z</time>
      </trkpt>
      <trkpt lat="44.26907" lon="6.19199">
        <ele>1929.9838867</ele>
        <time>2013-10-31T11:44:36Z</time>
      </trkpt>
      <trkpt lat="44.26917" lon="6.19176">
        <ele>1926.6193848</ele>
        <time>2013-10-31T11:45:02Z</time>
      </trkpt>
      <trkpt lat="44.26925" lon="6.19172">
        <ele>1925.1772461</ele>
        <time>2013-10-31T11:45:25Z</time>
      </trkpt>
      <trkpt lat="44.26923" lon="6.19153">
        <ele>1923.2548828</ele>
        <time>2013-10-31T11:45:50Z</time>
      </trkpt>
      <trkpt lat="44.26935" lon="6.19139">
        <ele>1921.3320313</ele>
        <time>2013-10-31T11:46:13Z</time>
      </trkpt>
      <trkpt lat="44.26943" lon="6.19129">
        <ele>1920.3708496</ele>
        <time>2013-10-31T11:46:35Z</time>
      </trkpt>
      <trkpt lat="44.26946" lon="6.19128">
        <ele>1920.3708496</ele>
        <time>2013-10-31T11:46:50Z</time>
      </trkpt>
      <trkpt lat="44.26949" lon="6.19119">
        <ele>1919.409668</ele>
        <time>2013-10-31T11:47:12Z</time>
      </trkpt>
      <trkpt lat="44.26962" lon="6.19095">
        <ele>1917.9675293</ele>
        <time>2013-10-31T11:47:35Z</time>
      </trkpt>
      <trkpt lat="44.2697" lon="6.19087">
        <ele>1918.4482422</ele>
        <time>2013-10-31T11:47:51Z</time>
      </trkpt>
      <trkpt lat="44.26969" lon="6.19085">
        <ele>1919.409668</ele>
        <time>2013-10-31T11:48:27Z</time>
      </trkpt>
      <trkpt lat="44.26971" lon="6.19083">
        <ele>1919.409668</ele>
        <time>2013-10-31T11:48:38Z</time>
      </trkpt>
      <trkpt lat="44.26974" lon="6.19068">
        <ele>1920.3708496</ele>
        <time>2013-10-31T11:48:53Z</time>
      </trkpt>
      <trkpt lat="44.26978" lon="6.19059">
        <ele>1919.8901367</ele>
        <time>2013-10-31T11:49:04Z</time>
      </trkpt>
      <trkpt lat="44.26981" lon="6.19055">
        <ele>1919.8901367</ele>
        <time>2013-10-31T11:49:08Z</time>
      </trkpt>
      <trkpt lat="44.26983" lon="6.19049">
        <ele>1919.409668</ele>
        <time>2013-10-31T11:49:13Z</time>
      </trkpt>
      <trkpt lat="44.26989" lon="6.19043">
        <ele>1919.409668</ele>
        <time>2013-10-31T11:49:28Z</time>
      </trkpt>
      <trkpt lat="44.26991" lon="6.19038">
        <ele>1919.409668</ele>
        <time>2013-10-31T11:50:03Z</time>
      </trkpt>
      <trkpt lat="44.26992" lon="6.1903">
        <ele>1921.3320313</ele>
        <time>2013-10-31T11:50:21Z</time>
      </trkpt>
      <trkpt lat="44.26993" lon="6.19027">
        <ele>1920.8515625</ele>
        <time>2013-10-31T11:51:14Z</time>
      </trkpt>
      <trkpt lat="44.26994" lon="6.19029">
        <ele>1920.8515625</ele>
        <time>2013-10-31T11:53:30Z</time>
      </trkpt>
      <trkpt lat="44.26992" lon="6.19028">
        <ele>1919.409668</ele>
        <time>2013-10-31T12:01:59Z</time>
      </trkpt>
      <trkpt lat="44.26993" lon="6.19027">
        <ele>1917.9675293</ele>
        <time>2013-10-31T12:16:49Z</time>
      </trkpt>
      <trkpt lat="44.26993" lon="6.19027">
        <ele>1919.409668</ele>
        <time>2013-10-31T12:17:07Z</time>
      </trkpt>
      <trkpt lat="44.26993" lon="6.19027">
        <ele>1917.9675293</ele>
        <time>2013-10-31T12:17:09Z</time>
      </trkpt>
      <trkpt lat="44.26993" lon="6.19027">
        <ele>1919.8901367</ele>
        <time>2013-10-31T12:17:57Z</time>
      </trkpt>
      <trkpt lat="44.26993" lon="6.19027">
        <ele>1920.3708496</ele>
        <time>2013-10-31T12:18:09Z</time>
      </trkpt>
      <trkpt lat="44.26993" lon="6.19027">
        <ele>1918.9289551</ele>
        <time>2013-10-31T12:18:14Z</time>
      </trkpt>
      <trkpt lat="44.26993" lon="6.19027">
        <ele>1918.4482422</ele>
        <time>2013-10-31T12:20:09Z</time>
      </trkpt>
      <trkpt lat="44.26993" lon="6.19027">
        <ele>1917.9675293</ele>
        <time>2013-10-31T12:20:21Z</time>
      </trkpt>
      <trkpt lat="44.26993" lon="6.19026">
        <ele>1918.4482422</ele>
        <time>2013-10-31T12:20:54Z</time>
      </trkpt>
      <trkpt lat="44.26994" lon="6.19028">
        <ele>1917.9675293</ele>
        <time>2013-10-31T12:21:19Z</time>
      </trkpt>
      <trkpt lat="44.26999" lon="6.19025">
        <ele>1921.3320313</ele>
        <time>2013-10-31T12:37:58Z</time>
      </trkpt>
      <trkpt lat="44.27001" lon="6.19">
        <ele>1922.293457</ele>
        <time>2013-10-31T12:40:53Z</time>
      </trkpt>
      <trkpt lat="44.27005" lon="6.18975">
        <ele>1924.6967773</ele>
        <time>2013-10-31T12:41:20Z</time>
      </trkpt>
      <trkpt lat="44.27018" lon="6.18964">
        <ele>1925.1772461</ele>
        <time>2013-10-31T12:42:01Z</time>
      </trkpt>
      <trkpt lat="44.27005" lon="6.18961">
        <ele>1925.1772461</ele>
        <time>2013-10-31T12:42:58Z</time>
      </trkpt>
      <trkpt lat="44.26988" lon="6.18945">
        <ele>1924.2160645</ele>
        <time>2013-10-31T12:43:28Z</time>
      </trkpt>
      <trkpt lat="44.2698" lon="6.18918">
        <ele>1924.6967773</ele>
        <time>2013-10-31T12:44:06Z</time>
      </trkpt>
      <trkpt lat="44.26979" lon="6.18888">
        <ele>1926.6193848</ele>
        <time>2013-10-31T12:44:30Z</time>
      </trkpt>
      <trkpt lat="44.26985" lon="6.18858">
        <ele>1926.6193848</ele>
        <time>2013-10-31T12:44:58Z</time>
      </trkpt>
      <trkpt lat="44.26992" lon="6.18834">
        <ele>1927.5805664</ele>
        <time>2013-10-31T12:45:21Z</time>
      </trkpt>
      <trkpt lat="44.2699" lon="6.1881">
        <ele>1926.1386719</ele>
        <time>2013-10-31T12:45:43Z</time>
      </trkpt>
      <trkpt lat="44.26984" lon="6.18801">
        <ele>1925.1772461</ele>
        <time>2013-10-31T12:45:59Z</time>
      </trkpt>
      <trkpt lat="44.26981" lon="6.18795">
        <ele>1923.7353516</ele>
        <time>2013-10-31T12:46:03Z</time>
      </trkpt>
      <trkpt lat="44.26983" lon="6.18774">
        <ele>1922.7741699</ele>
        <time>2013-10-31T12:46:23Z</time>
      </trkpt>
      <trkpt lat="44.26989" lon="6.18746">
        <ele>1919.8901367</ele>
        <time>2013-10-31T12:46:48Z</time>
      </trkpt>
      <trkpt lat="44.26991" lon="6.1874">
        <ele>1919.409668</ele>
        <time>2013-10-31T12:46:53Z</time>
      </trkpt>
      <trkpt lat="44.26994" lon="6.18723">
        <ele>1917.9675293</ele>
        <time>2013-10-31T12:47:06Z</time>
      </trkpt>
      <trkpt lat="44.26998" lon="6.18694">
        <ele>1917.4868164</ele>
        <time>2013-10-31T12:47:30Z</time>
      </trkpt>
      <trkpt lat="44.27002" lon="6.18681">
        <ele>1916.5256348</ele>
        <time>2013-10-31T12:47:40Z</time>
      </trkpt>
      <trkpt lat="44.27006" lon="6.18658">
        <ele>1915.564209</ele>
        <time>2013-10-31T12:48:01Z</time>
      </trkpt>
      <trkpt lat="44.2701" lon="6.18633">
        <ele>1918.4482422</ele>
        <time>2013-10-31T12:48:23Z</time>
      </trkpt>
      <trkpt lat="44.27003" lon="6.18619">
        <ele>1921.8127441</ele>
        <time>2013-10-31T12:48:42Z</time>
      </trkpt>
      <trkpt lat="44.26999" lon="6.18612">
        <ele>1924.2160645</ele>
        <time>2013-10-31T12:49:11Z</time>
      </trkpt>
      <trkpt lat="44.26995" lon="6.18608">
        <ele>1924.2160645</ele>
        <time>2013-10-31T12:50:27Z</time>
      </trkpt>
      <trkpt lat="44.27" lon="6.18611">
        <ele>1925.1772461</ele>
        <time>2013-10-31T12:50:57Z</time>
      </trkpt>
      <trkpt lat="44.26993" lon="6.18609">
        <ele>1921.8127441</ele>
        <time>2013-10-31T12:51:38Z</time>
      </trkpt>
      <trkpt lat="44.26995" lon="6.18601">
        <ele>1919.409668</ele>
        <time>2013-10-31T12:51:57Z</time>
      </trkpt>
      <trkpt lat="44.26992" lon="6.18599">
        <ele>1916.5256348</ele>
        <time>2013-10-31T12:52:08Z</time>
      </trkpt>
      <trkpt lat="44.26997" lon="6.18595">
        <ele>1914.1220703</ele>
        <time>2013-10-31T12:52:30Z</time>
      </trkpt>
      <trkpt lat="44.26996" lon="6.18586">
        <ele>1910.7575684</ele>
        <time>2013-10-31T12:52:59Z</time>
      </trkpt>
      <trkpt lat="44.26996" lon="6.18577">
        <ele>1907.3930664</ele>
        <time>2013-10-31T12:53:15Z</time>
      </trkpt>
      <trkpt lat="44.26991" lon="6.18568">
        <ele>1904.5090332</ele>
        <time>2013-10-31T12:53:32Z</time>
      </trkpt>
      <trkpt lat="44.26988" lon="6.18554">
        <ele>1901.6252441</ele>
        <time>2013-10-31T12:53:51Z</time>
      </trkpt>
      <trkpt lat="44.2699" lon="6.18544">
        <ele>1899.7023926</ele>
        <time>2013-10-31T12:54:13Z</time>
      </trkpt>
      <trkpt lat="44.26996" lon="6.18539">
        <ele>1896.3378906</ele>
        <time>2013-10-31T12:54:27Z</time>
      </trkpt>
      <trkpt lat="44.26992" lon="6.18524">
        <ele>1892.9731445</ele>
        <time>2013-10-31T12:54:43Z</time>
      </trkpt>
      <trkpt lat="44.26988" lon="6.18519">
        <ele>1890.5698242</ele>
        <time>2013-10-31T12:54:54Z</time>
      </trkpt>
      <trkpt lat="44.2698" lon="6.18513">
        <ele>1887.6860352</ele>
        <time>2013-10-31T12:55:13Z</time>
      </trkpt>
      <trkpt lat="44.26987" lon="6.18514">
        <ele>1884.8022461</ele>
        <time>2013-10-31T12:55:33Z</time>
      </trkpt>
      <trkpt lat="44.26984" lon="6.18497">
        <ele>1881.4372559</ele>
        <time>2013-10-31T12:55:46Z</time>
      </trkpt>
      <trkpt lat="44.26987" lon="6.18485">
        <ele>1879.0339355</ele>
        <time>2013-10-31T12:56:04Z</time>
      </trkpt>
      <trkpt lat="44.26982" lon="6.18468">
        <ele>1875.6694336</ele>
        <time>2013-10-31T12:56:21Z</time>
      </trkpt>
      <trkpt lat="44.26985" lon="6.18461">
        <ele>1873.2663574</ele>
        <time>2013-10-31T12:56:36Z</time>
      </trkpt>
      <trkpt lat="44.26981" lon="6.18458">
        <ele>1870.8630371</ele>
        <time>2013-10-31T12:56:55Z</time>
      </trkpt>
      <trkpt lat="44.26986" lon="6.18447">
        <ele>1867.4980469</ele>
        <time>2013-10-31T12:57:11Z</time>
      </trkpt>
      <trkpt lat="44.26985" lon="6.18436">
        <ele>1864.6142578</ele>
        <time>2013-10-31T12:57:26Z</time>
      </trkpt>
      <trkpt lat="44.26983" lon="6.18429">
        <ele>1861.7304688</ele>
        <time>2013-10-31T12:57:42Z</time>
      </trkpt>
      <trkpt lat="44.26983" lon="6.18414">
        <ele>1859.3271484</ele>
        <time>2013-10-31T12:57:59Z</time>
      </trkpt>
      <trkpt lat="44.2698" lon="6.18408">
        <ele>1857.8852539</ele>
        <time>2013-10-31T12:58:15Z</time>
      </trkpt>
      <trkpt lat="44.26977" lon="6.18393">
        <ele>1855.0012207</ele>
        <time>2013-10-31T12:58:30Z</time>
      </trkpt>
      <trkpt lat="44.26978" lon="6.18386">
        <ele>1851.6364746</ele>
        <time>2013-10-31T12:58:44Z</time>
      </trkpt>
      <trkpt lat="44.26978" lon="6.18377">
        <ele>1848.2717285</ele>
        <time>2013-10-31T12:58:58Z</time>
      </trkpt>
      <trkpt lat="44.26974" lon="6.18363">
        <ele>1845.3879395</ele>
        <time>2013-10-31T12:59:10Z</time>
      </trkpt>
      <trkpt lat="44.26973" lon="6.18345">
        <ele>1842.0234375</ele>
        <time>2013-10-31T12:59:30Z</time>
      </trkpt>
      <trkpt lat="44.26976" lon="6.18339">
        <ele>1841.5427246</ele>
        <time>2013-10-31T12:59:54Z</time>
      </trkpt>
      <trkpt lat="44.2698" lon="6.18332">
        <ele>1840.5812988</ele>
        <time>2013-10-31T13:00:47Z</time>
      </trkpt>
      <trkpt lat="44.26984" lon="6.18331">
        <ele>1840.1008301</ele>
        <time>2013-10-31T13:01:29Z</time>
      </trkpt>
      <trkpt lat="44.26976" lon="6.18314">
        <ele>1838.6589355</ele>
        <time>2013-10-31T13:01:58Z</time>
      </trkpt>
      <trkpt lat="44.26967" lon="6.18286">
        <ele>1835.7746582</ele>
        <time>2013-10-31T13:02:19Z</time>
      </trkpt>
      <trkpt lat="44.26964" lon="6.1826">
        <ele>1832.4101563</ele>
        <time>2013-10-31T13:02:43Z</time>
      </trkpt>
      <trkpt lat="44.26958" lon="6.18229">
        <ele>1832.4101563</ele>
        <time>2013-10-31T13:03:08Z</time>
      </trkpt>
      <trkpt lat="44.26956" lon="6.18212">
        <ele>1833.8520508</ele>
        <time>2013-10-31T13:03:30Z</time>
      </trkpt>
      <trkpt lat="44.2695" lon="6.1819">
        <ele>1834.3327637</ele>
        <time>2013-10-31T13:03:49Z</time>
      </trkpt>
      <trkpt lat="44.26948" lon="6.18167">
        <ele>1834.8134766</ele>
        <time>2013-10-31T13:04:12Z</time>
      </trkpt>
      <trkpt lat="44.2694" lon="6.1814">
        <ele>1836.2556152</ele>
        <time>2013-10-31T13:04:36Z</time>
      </trkpt>
      <trkpt lat="44.26937" lon="6.1812">
        <ele>1837.6975098</ele>
        <time>2013-10-31T13:04:57Z</time>
      </trkpt>
      <trkpt lat="44.26935" lon="6.1809">
        <ele>1839.1394043</ele>
        <time>2013-10-31T13:05:20Z</time>
      </trkpt>
      <trkpt lat="44.26931" lon="6.18063">
        <ele>1841.0620117</ele>
        <time>2013-10-31T13:05:41Z</time>
      </trkpt>
      <trkpt lat="44.26932" lon="6.18033">
        <ele>1840.5812988</ele>
        <time>2013-10-31T13:06:04Z</time>
      </trkpt>
      <trkpt lat="44.26923" lon="6.18001">
        <ele>1840.1008301</ele>
        <time>2013-10-31T13:06:28Z</time>
      </trkpt>
      <trkpt lat="44.26921" lon="6.1797">
        <ele>1839.1394043</ele>
        <time>2013-10-31T13:06:53Z</time>
      </trkpt>
      <trkpt lat="44.26913" lon="6.17939">
        <ele>1838.6589355</ele>
        <time>2013-10-31T13:07:19Z</time>
      </trkpt>
      <trkpt lat="44.26907" lon="6.17914">
        <ele>1839.1394043</ele>
        <time>2013-10-31T13:07:43Z</time>
      </trkpt>
      <trkpt lat="44.26904" lon="6.1788">
        <ele>1839.1394043</ele>
        <time>2013-10-31T13:08:10Z</time>
      </trkpt>
      <trkpt lat="44.26902" lon="6.17853">
        <ele>1837.2167969</ele>
        <time>2013-10-31T13:08:36Z</time>
      </trkpt>
      <trkpt lat="44.269" lon="6.17826">
        <ele>1835.2939453</ele>
        <time>2013-10-31T13:09:02Z</time>
      </trkpt>
      <trkpt lat="44.26895" lon="6.17795">
        <ele>1833.8520508</ele>
        <time>2013-10-31T13:09:26Z</time>
      </trkpt>
      <trkpt lat="44.26893" lon="6.17769">
        <ele>1833.3713379</ele>
        <time>2013-10-31T13:09:46Z</time>
      </trkpt>
      <trkpt lat="44.26894" lon="6.17758">
        <ele>1832.4101563</ele>
        <time>2013-10-31T13:10:03Z</time>
      </trkpt>
      <trkpt lat="44.26893" lon="6.17732">
        <ele>1830.4875488</ele>
        <time>2013-10-31T13:10:25Z</time>
      </trkpt>
      <trkpt lat="44.26892" lon="6.17723">
        <ele>1830.0068359</ele>
        <time>2013-10-31T13:10:46Z</time>
      </trkpt>
      <trkpt lat="44.26894" lon="6.17706">
        <ele>1830.0068359</ele>
        <time>2013-10-31T13:11:03Z</time>
      </trkpt>
      <trkpt lat="44.26898" lon="6.17675">
        <ele>1828.5649414</ele>
        <time>2013-10-31T13:11:29Z</time>
      </trkpt>
      <trkpt lat="44.26893" lon="6.17646">
        <ele>1827.1230469</ele>
        <time>2013-10-31T13:11:53Z</time>
      </trkpt>
      <trkpt lat="44.26895" lon="6.17617">
        <ele>1825.2001953</ele>
        <time>2013-10-31T13:12:19Z</time>
      </trkpt>
      <trkpt lat="44.26898" lon="6.17586">
        <ele>1822.3164063</ele>
        <time>2013-10-31T13:12:49Z</time>
      </trkpt>
      <trkpt lat="44.26895" lon="6.17557">
        <ele>1821.8356934</ele>
        <time>2013-10-31T13:13:11Z</time>
      </trkpt>
      <trkpt lat="44.26896" lon="6.17525">
        <ele>1819.9128418</ele>
        <time>2013-10-31T13:13:39Z</time>
      </trkpt>
      <trkpt lat="44.26897" lon="6.1749">
        <ele>1817.5095215</ele>
        <time>2013-10-31T13:14:05Z</time>
      </trkpt>
      <trkpt lat="44.26893" lon="6.17459">
        <ele>1814.6257324</ele>
        <time>2013-10-31T13:14:29Z</time>
      </trkpt>
      <trkpt lat="44.26894" lon="6.17429">
        <ele>1811.2612305</ele>
        <time>2013-10-31T13:14:52Z</time>
      </trkpt>
      <trkpt lat="44.26897" lon="6.17419">
        <ele>1810.7805176</ele>
        <time>2013-10-31T13:15:01Z</time>
      </trkpt>
      <trkpt lat="44.26904" lon="6.17389">
        <ele>1807.4160156</ele>
        <time>2013-10-31T13:15:25Z</time>
      </trkpt>
      <trkpt lat="44.26905" lon="6.17388">
        <ele>1807.4160156</ele>
        <time>2013-10-31T13:15:26Z</time>
      </trkpt>
      <trkpt lat="44.2691" lon="6.17358">
        <ele>1805.0126953</ele>
        <time>2013-10-31T13:15:50Z</time>
      </trkpt>
      <trkpt lat="44.26919" lon="6.17336">
        <ele>1805.0126953</ele>
        <time>2013-10-31T13:16:11Z</time>
      </trkpt>
      <trkpt lat="44.2692" lon="6.17317">
        <ele>1802.128418</ele>
        <time>2013-10-31T13:16:39Z</time>
      </trkpt>
      <trkpt lat="44.26927" lon="6.17286">
        <ele>1800.2060547</ele>
        <time>2013-10-31T13:17:10Z</time>
      </trkpt>
      <trkpt lat="44.26931" lon="6.17264">
        <ele>1799.2446289</ele>
        <time>2013-10-31T13:17:32Z</time>
      </trkpt>
      <trkpt lat="44.26931" lon="6.17261">
        <ele>1799.2446289</ele>
        <time>2013-10-31T13:17:34Z</time>
      </trkpt>
      <trkpt lat="44.26938" lon="6.17231">
        <ele>1799.7253418</ele>
        <time>2013-10-31T13:17:58Z</time>
      </trkpt>
      <trkpt lat="44.26944" lon="6.17201">
        <ele>1802.128418</ele>
        <time>2013-10-31T13:18:24Z</time>
      </trkpt>
      <trkpt lat="44.26948" lon="6.17165">
        <ele>1801.1672363</ele>
        <time>2013-10-31T13:18:53Z</time>
      </trkpt>
      <trkpt lat="44.26951" lon="6.17136">
        <ele>1800.2060547</ele>
        <time>2013-10-31T13:19:14Z</time>
      </trkpt>
      <trkpt lat="44.26952" lon="6.17124">
        <ele>1799.7253418</ele>
        <time>2013-10-31T13:19:37Z</time>
      </trkpt>
      <trkpt lat="44.26955" lon="6.17123">
        <ele>1799.2446289</ele>
        <time>2013-10-31T13:20:32Z</time>
      </trkpt>
      <trkpt lat="44.26953" lon="6.17122">
        <ele>1799.7253418</ele>
        <time>2013-10-31T13:21:07Z</time>
      </trkpt>
      <trkpt lat="44.26952" lon="6.17127">
        <ele>1799.7253418</ele>
        <time>2013-10-31T13:21:47Z</time>
      </trkpt>
      <trkpt lat="44.2695" lon="6.17125">
        <ele>1799.2446289</ele>
        <time>2013-10-31T13:22:19Z</time>
      </trkpt>
      <trkpt lat="44.26953" lon="6.17125">
        <ele>1798.763916</ele>
        <time>2013-10-31T13:22:52Z</time>
      </trkpt>
      <trkpt lat="44.26951" lon="6.17126">
        <ele>1798.763916</ele>
        <time>2013-10-31T13:24:09Z</time>
      </trkpt>
      <trkpt lat="44.26952" lon="6.17124">
        <ele>1798.763916</ele>
        <time>2013-10-31T13:24:44Z</time>
      </trkpt>
      <trkpt lat="44.26952" lon="6.17125">
        <ele>1798.2832031</ele>
        <time>2013-10-31T13:25:15Z</time>
      </trkpt>
      <trkpt lat="44.26954" lon="6.17127">
        <ele>1797.8027344</ele>
        <time>2013-10-31T13:26:59Z</time>
      </trkpt>
      <trkpt lat="44.26951" lon="6.17121">
        <ele>1797.3220215</ele>
        <time>2013-10-31T13:28:01Z</time>
      </trkpt>
      <trkpt lat="44.26949" lon="6.1711">
        <ele>1794.9187012</ele>
        <time>2013-10-31T13:28:16Z</time>
      </trkpt>
      <trkpt lat="44.26949" lon="6.17095">
        <ele>1792.9960938</ele>
        <time>2013-10-31T13:28:34Z</time>
      </trkpt>
      <trkpt lat="44.26949" lon="6.17079">
        <ele>1789.6315918</ele>
        <time>2013-10-31T13:28:50Z</time>
      </trkpt>
      <trkpt lat="44.26949" lon="6.17064">
        <ele>1786.2668457</ele>
        <time>2013-10-31T13:29:07Z</time>
      </trkpt>
      <trkpt lat="44.26953" lon="6.17049">
        <ele>1783.3828125</ele>
        <time>2013-10-31T13:29:23Z</time>
      </trkpt>
      <trkpt lat="44.26954" lon="6.1703">
        <ele>1780.0183105</ele>
        <time>2013-10-31T13:29:41Z</time>
      </trkpt>
      <trkpt lat="44.26959" lon="6.17013">
        <ele>1777.6149902</ele>
        <time>2013-10-31T13:30:01Z</time>
      </trkpt>
      <trkpt lat="44.26961" lon="6.16999">
        <ele>1774.7312012</ele>
        <time>2013-10-31T13:30:18Z</time>
      </trkpt>
      <trkpt lat="44.26964" lon="6.16988">
        <ele>1771.3662109</ele>
        <time>2013-10-31T13:30:32Z</time>
      </trkpt>
      <trkpt lat="44.26966" lon="6.16974">
        <ele>1768.001709</ele>
        <time>2013-10-31T13:30:49Z</time>
      </trkpt>
      <trkpt lat="44.26968" lon="6.16956">
        <ele>1764.637207</ele>
        <time>2013-10-31T13:31:14Z</time>
      </trkpt>
      <trkpt lat="44.26966" lon="6.16946">
        <ele>1763.6757813</ele>
        <time>2013-10-31T13:31:28Z</time>
      </trkpt>
      <trkpt lat="44.26969" lon="6.16924">
        <ele>1761.2727051</ele>
        <time>2013-10-31T13:31:46Z</time>
      </trkpt>
      <trkpt lat="44.26971" lon="6.16907">
        <ele>1760.3112793</ele>
        <time>2013-10-31T13:32:03Z</time>
      </trkpt>
      <trkpt lat="44.2697" lon="6.16887">
        <ele>1759.3500977</ele>
        <time>2013-10-31T13:32:18Z</time>
      </trkpt>
      <trkpt lat="44.2697" lon="6.16883">
        <ele>1758.8693848</ele>
        <time>2013-10-31T13:32:21Z</time>
      </trkpt>
      <trkpt lat="44.26973" lon="6.16866">
        <ele>1756.9467773</ele>
        <time>2013-10-31T13:32:37Z</time>
      </trkpt>
      <trkpt lat="44.26975" lon="6.16853">
        <ele>1754.5432129</ele>
        <time>2013-10-31T13:32:48Z</time>
      </trkpt>
      <trkpt lat="44.26978" lon="6.16838">
        <ele>1753.5820313</ele>
        <time>2013-10-31T13:33:00Z</time>
      </trkpt>
      <trkpt lat="44.26981" lon="6.16805">
        <ele>1751.6594238</ele>
        <time>2013-10-31T13:33:22Z</time>
      </trkpt>
      <trkpt lat="44.2698" lon="6.16779">
        <ele>1749.7368164</ele>
        <time>2013-10-31T13:33:40Z</time>
      </trkpt>
      <trkpt lat="44.26982" lon="6.16755">
        <ele>1749.7368164</ele>
        <time>2013-10-31T13:33:58Z</time>
      </trkpt>
      <trkpt lat="44.26982" lon="6.16749">
        <ele>1749.2561035</ele>
        <time>2013-10-31T13:34:03Z</time>
      </trkpt>
      <trkpt lat="44.26985" lon="6.16727">
        <ele>1749.2561035</ele>
        <time>2013-10-31T13:34:21Z</time>
      </trkpt>
      <trkpt lat="44.2698" lon="6.16699">
        <ele>1748.7753906</ele>
        <time>2013-10-31T13:34:43Z</time>
      </trkpt>
      <trkpt lat="44.26981" lon="6.16676">
        <ele>1746.8527832</ele>
        <time>2013-10-31T13:34:59Z</time>
      </trkpt>
      <trkpt lat="44.26984" lon="6.16659">
        <ele>1749.2561035</ele>
        <time>2013-10-31T13:35:14Z</time>
      </trkpt>
      <trkpt lat="44.26992" lon="6.16643">
        <ele>1751.1787109</ele>
        <time>2013-10-31T13:35:29Z</time>
      </trkpt>
      <trkpt lat="44.26995" lon="6.16626">
        <ele>1754.0627441</ele>
        <time>2013-10-31T13:35:47Z</time>
      </trkpt>
      <trkpt lat="44.26998" lon="6.16612">
        <ele>1756.9467773</ele>
        <time>2013-10-31T13:36:03Z</time>
      </trkpt>
      <trkpt lat="44.26999" lon="6.16599">
        <ele>1758.3886719</ele>
        <time>2013-10-31T13:36:17Z</time>
      </trkpt>
      <trkpt lat="44.27" lon="6.16583">
        <ele>1759.8305664</ele>
        <time>2013-10-31T13:36:31Z</time>
      </trkpt>
      <trkpt lat="44.27001" lon="6.16582">
        <ele>1760.3112793</ele>
        <time>2013-10-31T13:36:36Z</time>
      </trkpt>
      <trkpt lat="44.27003" lon="6.16559">
        <ele>1761.2727051</ele>
        <time>2013-10-31T13:36:55Z</time>
      </trkpt>
      <trkpt lat="44.27002" lon="6.16554">
        <ele>1761.753418</ele>
        <time>2013-10-31T13:37:18Z</time>
      </trkpt>
      <trkpt lat="44.27002" lon="6.16538">
        <ele>1763.6757813</ele>
        <time>2013-10-31T13:37:33Z</time>
      </trkpt>
      <trkpt lat="44.27004" lon="6.16525">
        <ele>1764.637207</ele>
        <time>2013-10-31T13:37:43Z</time>
      </trkpt>
      <trkpt lat="44.27004" lon="6.16507">
        <ele>1765.1179199</ele>
        <time>2013-10-31T13:37:59Z</time>
      </trkpt>
      <trkpt lat="44.27004" lon="6.16505">
        <ele>1765.1179199</ele>
        <time>2013-10-31T13:38:00Z</time>
      </trkpt>
      <trkpt lat="44.27004" lon="6.16502">
        <ele>1765.1179199</ele>
        <time>2013-10-31T13:38:02Z</time>
      </trkpt>
      <trkpt lat="44.27005" lon="6.16497">
        <ele>1767.0405273</ele>
        <time>2013-10-31T13:38:16Z</time>
      </trkpt>
      <trkpt lat="44.27004" lon="6.16497">
        <ele>1765.1179199</ele>
        <time>2013-10-31T13:38:19Z</time>
      </trkpt>
      <trkpt lat="44.27004" lon="6.16494">
        <ele>1765.5986328</ele>
        <time>2013-10-31T13:38:30Z</time>
      </trkpt>
      <trkpt lat="44.27004" lon="6.16472">
        <ele>1765.1179199</ele>
        <time>2013-10-31T13:38:46Z</time>
      </trkpt>
      <trkpt lat="44.27005" lon="6.16467">
        <ele>1764.1564941</ele>
        <time>2013-10-31T13:38:50Z</time>
      </trkpt>
      <trkpt lat="44.26999" lon="6.16443">
        <ele>1763.1953125</ele>
        <time>2013-10-31T13:39:06Z</time>
      </trkpt>
      <trkpt lat="44.26994" lon="6.16419">
        <ele>1762.2338867</ele>
        <time>2013-10-31T13:39:23Z</time>
      </trkpt>
      <trkpt lat="44.26991" lon="6.16394">
        <ele>1761.753418</ele>
        <time>2013-10-31T13:39:42Z</time>
      </trkpt>
      <trkpt lat="44.26991" lon="6.16393">
        <ele>1761.2727051</ele>
        <time>2013-10-31T13:39:43Z</time>
      </trkpt>
      <trkpt lat="44.26989" lon="6.16387">
        <ele>1761.2727051</ele>
        <time>2013-10-31T13:39:47Z</time>
      </trkpt>
      <trkpt lat="44.26991" lon="6.1638">
        <ele>1760.3112793</ele>
        <time>2013-10-31T13:39:53Z</time>
      </trkpt>
      <trkpt lat="44.26989" lon="6.16368">
        <ele>1758.3886719</ele>
        <time>2013-10-31T13:40:01Z</time>
      </trkpt>
      <trkpt lat="44.26984" lon="6.16346">
        <ele>1759.3500977</ele>
        <time>2013-10-31T13:40:17Z</time>
      </trkpt>
      <trkpt lat="44.26985" lon="6.16313">
        <ele>1758.3886719</ele>
        <time>2013-10-31T13:40:40Z</time>
      </trkpt>
      <trkpt lat="44.26983" lon="6.163">
        <ele>1757.9082031</ele>
        <time>2013-10-31T13:40:48Z</time>
      </trkpt>
      <trkpt lat="44.26988" lon="6.16274">
        <ele>1758.3886719</ele>
        <time>2013-10-31T13:41:06Z</time>
      </trkpt>
      <trkpt lat="44.26989" lon="6.16267">
        <ele>1759.3500977</ele>
        <time>2013-10-31T13:41:13Z</time>
      </trkpt>
      <trkpt lat="44.26991" lon="6.16263">
        <ele>1760.7919922</ele>
        <time>2013-10-31T13:41:18Z</time>
      </trkpt>
      <trkpt lat="44.26997" lon="6.16249">
        <ele>1764.1564941</ele>
        <time>2013-10-31T13:41:32Z</time>
      </trkpt>
      <trkpt lat="44.27001" lon="6.16223">
        <ele>1767.0405273</ele>
        <time>2013-10-31T13:41:53Z</time>
      </trkpt>
      <trkpt lat="44.26992" lon="6.16191">
        <ele>1769.4438477</ele>
        <time>2013-10-31T13:42:20Z</time>
      </trkpt>
      <trkpt lat="44.26988" lon="6.16161">
        <ele>1771.8469238</ele>
        <time>2013-10-31T13:42:46Z</time>
      </trkpt>
      <trkpt lat="44.26978" lon="6.16133">
        <ele>1774.7312012</ele>
        <time>2013-10-31T13:43:07Z</time>
      </trkpt>
      <trkpt lat="44.26974" lon="6.16111">
        <ele>1774.7312012</ele>
        <time>2013-10-31T13:43:32Z</time>
      </trkpt>
      <trkpt lat="44.26973" lon="6.16087">
        <ele>1774.7312012</ele>
        <time>2013-10-31T13:43:55Z</time>
      </trkpt>
      <trkpt lat="44.26974" lon="6.16051">
        <ele>1776.1730957</ele>
        <time>2013-10-31T13:44:24Z</time>
      </trkpt>
      <trkpt lat="44.26962" lon="6.16013">
        <ele>1778.0957031</ele>
        <time>2013-10-31T13:44:59Z</time>
      </trkpt>
      <trkpt lat="44.26964" lon="6.15982">
        <ele>1780.4990234</ele>
        <time>2013-10-31T13:45:26Z</time>
      </trkpt>
      <trkpt lat="44.26962" lon="6.15957">
        <ele>1782.9020996</ele>
        <time>2013-10-31T13:45:52Z</time>
      </trkpt>
      <trkpt lat="44.26964" lon="6.15938">
        <ele>1785.3054199</ele>
        <time>2013-10-31T13:46:12Z</time>
      </trkpt>
      <trkpt lat="44.26951" lon="6.15946">
        <ele>1784.8249512</ele>
        <time>2013-10-31T13:46:42Z</time>
      </trkpt>
      <trkpt lat="44.26943" lon="6.15953">
        <ele>1784.8249512</ele>
        <time>2013-10-31T13:46:49Z</time>
      </trkpt>
      <trkpt lat="44.26948" lon="6.15946">
        <ele>1784.8249512</ele>
        <time>2013-10-31T13:47:09Z</time>
      </trkpt>
      <trkpt lat="44.2696" lon="6.1594">
        <ele>1784.3442383</ele>
        <time>2013-10-31T13:48:35Z</time>
      </trkpt>
      <trkpt lat="44.26958" lon="6.15931">
        <ele>1781.4602051</ele>
        <time>2013-10-31T13:52:30Z</time>
      </trkpt>
      <trkpt lat="44.26955" lon="6.15904">
        <ele>1780.9797363</ele>
        <time>2013-10-31T13:52:54Z</time>
      </trkpt>
      <trkpt lat="44.2696" lon="6.1588">
        <ele>1779.0568848</ele>
        <time>2013-10-31T13:53:19Z</time>
      </trkpt>
      <trkpt lat="44.26959" lon="6.15853">
        <ele>1778.576416</ele>
        <time>2013-10-31T13:53:45Z</time>
      </trkpt>
      <trkpt lat="44.26957" lon="6.15833">
        <ele>1777.6149902</ele>
        <time>2013-10-31T13:54:11Z</time>
      </trkpt>
      <trkpt lat="44.26957" lon="6.15813">
        <ele>1774.7312012</ele>
        <time>2013-10-31T13:54:40Z</time>
      </trkpt>
      <trkpt lat="44.26955" lon="6.15792">
        <ele>1771.8469238</ele>
        <time>2013-10-31T13:54:58Z</time>
      </trkpt>
      <trkpt lat="44.26951" lon="6.15765">
        <ele>1769.9243164</ele>
        <time>2013-10-31T13:55:25Z</time>
      </trkpt>
      <trkpt lat="44.2695" lon="6.15763">
        <ele>1769.9243164</ele>
        <time>2013-10-31T13:55:27Z</time>
      </trkpt>
      <trkpt lat="44.2695" lon="6.15741">
        <ele>1768.001709</ele>
        <time>2013-10-31T13:55:47Z</time>
      </trkpt>
      <trkpt lat="44.26947" lon="6.15728">
        <ele>1767.5209961</ele>
        <time>2013-10-31T13:55:57Z</time>
      </trkpt>
      <trkpt lat="44.26943" lon="6.15721">
        <ele>1767.5209961</ele>
        <time>2013-10-31T13:56:03Z</time>
      </trkpt>
      <trkpt lat="44.26944" lon="6.15698">
        <ele>1766.5598145</ele>
        <time>2013-10-31T13:56:22Z</time>
      </trkpt>
      <trkpt lat="44.26945" lon="6.15672">
        <ele>1764.1564941</ele>
        <time>2013-10-31T13:56:49Z</time>
      </trkpt>
      <trkpt lat="44.26948" lon="6.15662">
        <ele>1760.7919922</ele>
        <time>2013-10-31T13:57:07Z</time>
      </trkpt>
      <trkpt lat="44.26937" lon="6.15635">
        <ele>1761.753418</ele>
        <time>2013-10-31T13:57:31Z</time>
      </trkpt>
      <trkpt lat="44.26937" lon="6.15611">
        <ele>1761.2727051</ele>
        <time>2013-10-31T13:57:54Z</time>
      </trkpt>
      <trkpt lat="44.26933" lon="6.15601">
        <ele>1760.7919922</ele>
        <time>2013-10-31T13:58:17Z</time>
      </trkpt>
      <trkpt lat="44.2693" lon="6.15597">
        <ele>1757.4274902</ele>
        <time>2013-10-31T13:59:56Z</time>
      </trkpt>
      <trkpt lat="44.26926" lon="6.15589">
        <ele>1754.0627441</ele>
        <time>2013-10-31T14:00:11Z</time>
      </trkpt>
      <trkpt lat="44.2693" lon="6.15574">
        <ele>1750.697998</ele>
        <time>2013-10-31T14:00:34Z</time>
      </trkpt>
      <trkpt lat="44.26926" lon="6.15562">
        <ele>1747.814209</ele>
        <time>2013-10-31T14:00:48Z</time>
      </trkpt>
      <trkpt lat="44.26918" lon="6.15552">
        <ele>1743.9689941</ele>
        <time>2013-10-31T14:01:04Z</time>
      </trkpt>
      <trkpt lat="44.26911" lon="6.15547">
        <ele>1742.0463867</ele>
        <time>2013-10-31T14:01:25Z</time>
      </trkpt>
      <trkpt lat="44.26906" lon="6.15533">
        <ele>1738.6816406</ele>
        <time>2013-10-31T14:01:43Z</time>
      </trkpt>
      <trkpt lat="44.26899" lon="6.15511">
        <ele>1735.7976074</ele>
        <time>2013-10-31T14:02:02Z</time>
      </trkpt>
      <trkpt lat="44.26896" lon="6.15489">
        <ele>1734.3557129</ele>
        <time>2013-10-31T14:02:19Z</time>
      </trkpt>
      <trkpt lat="44.26902" lon="6.15477">
        <ele>1733.3942871</ele>
        <time>2013-10-31T14:02:34Z</time>
      </trkpt>
      <trkpt lat="44.2691" lon="6.15458">
        <ele>1730.0297852</ele>
        <time>2013-10-31T14:02:52Z</time>
      </trkpt>
      <trkpt lat="44.26918" lon="6.15446">
        <ele>1726.6652832</ele>
        <time>2013-10-31T14:03:06Z</time>
      </trkpt>
      <trkpt lat="44.26926" lon="6.15436">
        <ele>1723.3005371</ele>
        <time>2013-10-31T14:03:20Z</time>
      </trkpt>
      <trkpt lat="44.26936" lon="6.15436">
        <ele>1719.935791</ele>
        <time>2013-10-31T14:03:37Z</time>
      </trkpt>
      <trkpt lat="44.26939" lon="6.15439">
        <ele>1718.9746094</ele>
        <time>2013-10-31T14:04:17Z</time>
      </trkpt>
      <trkpt lat="44.26942" lon="6.15434">
        <ele>1715.6101074</ele>
        <time>2013-10-31T14:04:30Z</time>
      </trkpt>
      <trkpt lat="44.26944" lon="6.15428">
        <ele>1712.2453613</ele>
        <time>2013-10-31T14:04:42Z</time>
      </trkpt>
      <trkpt lat="44.26945" lon="6.15426">
        <ele>1711.7648926</ele>
        <time>2013-10-31T14:04:45Z</time>
      </trkpt>
      <trkpt lat="44.26953" lon="6.15421">
        <ele>1707.4387207</ele>
        <time>2013-10-31T14:04:56Z</time>
      </trkpt>
      <trkpt lat="44.2696" lon="6.1542">
        <ele>1704.0742188</ele>
        <time>2013-10-31T14:05:11Z</time>
      </trkpt>
      <trkpt lat="44.26964" lon="6.15415">
        <ele>1700.7094727</ele>
        <time>2013-10-31T14:05:23Z</time>
      </trkpt>
      <trkpt lat="44.26965" lon="6.15412">
        <ele>1697.8256836</ele>
        <time>2013-10-31T14:05:44Z</time>
      </trkpt>
      <trkpt lat="44.26968" lon="6.15411">
        <ele>1694.9416504</ele>
        <time>2013-10-31T14:05:55Z</time>
      </trkpt>
      <trkpt lat="44.26974" lon="6.15411">
        <ele>1691.5769043</ele>
        <time>2013-10-31T14:06:14Z</time>
      </trkpt>
      <trkpt lat="44.26977" lon="6.15419">
        <ele>1688.6931152</ele>
        <time>2013-10-31T14:06:58Z</time>
      </trkpt>
      <trkpt lat="44.26989" lon="6.15427">
        <ele>1684.8479004</ele>
        <time>2013-10-31T14:07:14Z</time>
      </trkpt>
      <trkpt lat="44.26997" lon="6.1543">
        <ele>1681.9638672</ele>
        <time>2013-10-31T14:07:31Z</time>
      </trkpt>
      <trkpt lat="44.27005" lon="6.15439">
        <ele>1678.5993652</ele>
        <time>2013-10-31T14:07:47Z</time>
      </trkpt>
      <trkpt lat="44.27012" lon="6.1545">
        <ele>1675.234375</ele>
        <time>2013-10-31T14:08:07Z</time>
      </trkpt>
      <trkpt lat="44.27023" lon="6.15455">
        <ele>1672.3505859</ele>
        <time>2013-10-31T14:08:22Z</time>
      </trkpt>
      <trkpt lat="44.27025" lon="6.15465">
        <ele>1668.986084</ele>
        <time>2013-10-31T14:08:37Z</time>
      </trkpt>
      <trkpt lat="44.27036" lon="6.15476">
        <ele>1665.621582</ele>
        <time>2013-10-31T14:08:54Z</time>
      </trkpt>
      <trkpt lat="44.2704" lon="6.15473">
        <ele>1664.1794434</ele>
        <time>2013-10-31T14:09:00Z</time>
      </trkpt>
      <trkpt lat="44.27047" lon="6.15479">
        <ele>1660.8149414</ele>
        <time>2013-10-31T14:09:15Z</time>
      </trkpt>
      <trkpt lat="44.27057" lon="6.15481">
        <ele>1657.4501953</ele>
        <time>2013-10-31T14:09:29Z</time>
      </trkpt>
      <trkpt lat="44.2707" lon="6.15491">
        <ele>1654.5661621</ele>
        <time>2013-10-31T14:09:45Z</time>
      </trkpt>
      <trkpt lat="44.27077" lon="6.15505">
        <ele>1650.7209473</ele>
        <time>2013-10-31T14:10:05Z</time>
      </trkpt>
      <trkpt lat="44.27086" lon="6.15523">
        <ele>1647.8371582</ele>
        <time>2013-10-31T14:10:29Z</time>
      </trkpt>
      <trkpt lat="44.27092" lon="6.15534">
        <ele>1644.4724121</ele>
        <time>2013-10-31T14:10:50Z</time>
      </trkpt>
      <trkpt lat="44.27099" lon="6.15543">
        <ele>1641.107666</ele>
        <time>2013-10-31T14:11:17Z</time>
      </trkpt>
      <trkpt lat="44.27102" lon="6.1555">
        <ele>1640.1464844</ele>
        <time>2013-10-31T14:11:36Z</time>
      </trkpt>
      <trkpt lat="44.27102" lon="6.15552">
        <ele>1639.6657715</ele>
        <time>2013-10-31T14:11:51Z</time>
      </trkpt>
      <trkpt lat="44.27104" lon="6.15547">
        <ele>1639.1850586</ele>
        <time>2013-10-31T14:12:12Z</time>
      </trkpt>
      <trkpt lat="44.27108" lon="6.15546">
        <ele>1638.7045898</ele>
        <time>2013-10-31T14:12:26Z</time>
      </trkpt>
      <trkpt lat="44.27111" lon="6.1554">
        <ele>1635.8205566</ele>
        <time>2013-10-31T14:12:45Z</time>
      </trkpt>
      <trkpt lat="44.27112" lon="6.15528">
        <ele>1631.9753418</ele>
        <time>2013-10-31T14:12:59Z</time>
      </trkpt>
      <trkpt lat="44.27112" lon="6.15521">
        <ele>1629.5720215</ele>
        <time>2013-10-31T14:13:10Z</time>
      </trkpt>
      <trkpt lat="44.27115" lon="6.15515">
        <ele>1626.6879883</ele>
        <time>2013-10-31T14:13:21Z</time>
      </trkpt>
      <trkpt lat="44.27125" lon="6.15511">
        <ele>1623.3234863</ele>
        <time>2013-10-31T14:13:39Z</time>
      </trkpt>
      <trkpt lat="44.27132" lon="6.15511">
        <ele>1619.4782715</ele>
        <time>2013-10-31T14:13:53Z</time>
      </trkpt>
      <trkpt lat="44.27137" lon="6.15511">
        <ele>1616.5942383</ele>
        <time>2013-10-31T14:14:06Z</time>
      </trkpt>
      <trkpt lat="44.27143" lon="6.15509">
        <ele>1613.2297363</ele>
        <time>2013-10-31T14:14:16Z</time>
      </trkpt>
      <trkpt lat="44.27149" lon="6.15505">
        <ele>1610.345459</ele>
        <time>2013-10-31T14:14:35Z</time>
      </trkpt>
      <trkpt lat="44.27158" lon="6.15511">
        <ele>1607.4616699</ele>
        <time>2013-10-31T14:14:51Z</time>
      </trkpt>
      <trkpt lat="44.27164" lon="6.15515">
        <ele>1605.0583496</ele>
        <time>2013-10-31T14:15:07Z</time>
      </trkpt>
      <trkpt lat="44.27179" lon="6.15532">
        <ele>1604.097168</ele>
        <time>2013-10-31T14:15:30Z</time>
      </trkpt>
      <trkpt lat="44.27179" lon="6.15532">
        <ele>1604.097168</ele>
        <time>2013-10-31T14:15:34Z</time>
      </trkpt>
      <trkpt lat="44.27182" lon="6.15535">
        <ele>1603.6164551</ele>
        <time>2013-10-31T14:15:49Z</time>
      </trkpt>
      <trkpt lat="44.27186" lon="6.15544">
        <ele>1603.6164551</ele>
        <time>2013-10-31T14:16:06Z</time>
      </trkpt>
      <trkpt lat="44.27186" lon="6.15547">
        <ele>1603.1357422</ele>
        <time>2013-10-31T14:17:08Z</time>
      </trkpt>
      <trkpt lat="44.27186" lon="6.15545">
        <ele>1603.1357422</ele>
        <time>2013-10-31T14:17:33Z</time>
      </trkpt>
      <trkpt lat="44.27187" lon="6.15544">
        <ele>1603.1357422</ele>
        <time>2013-10-31T14:18:15Z</time>
      </trkpt>
      <trkpt lat="44.27198" lon="6.15555">
        <ele>1601.6938477</ele>
        <time>2013-10-31T14:18:40Z</time>
      </trkpt>
      <trkpt lat="44.27216" lon="6.15574">
        <ele>1599.7712402</ele>
        <time>2013-10-31T14:19:00Z</time>
      </trkpt>
      <trkpt lat="44.27226" lon="6.15583">
        <ele>1599.2905273</ele>
        <time>2013-10-31T14:19:05Z</time>
      </trkpt>
      <trkpt lat="44.27217" lon="6.15582">
        <ele>1598.8098145</ele>
        <time>2013-10-31T14:19:10Z</time>
      </trkpt>
      <trkpt lat="44.27232" lon="6.15597">
        <ele>1595.9257813</ele>
        <time>2013-10-31T14:19:30Z</time>
      </trkpt>
      <trkpt lat="44.27233" lon="6.15597">
        <ele>1595.4450684</ele>
        <time>2013-10-31T14:19:31Z</time>
      </trkpt>
      <trkpt lat="44.27247" lon="6.15607">
        <ele>1592.0805664</ele>
        <time>2013-10-31T14:19:52Z</time>
      </trkpt>
      <trkpt lat="44.27261" lon="6.15621">
        <ele>1588.2353516</ele>
        <time>2013-10-31T14:20:12Z</time>
      </trkpt>
      <trkpt lat="44.27272" lon="6.15639">
        <ele>1585.3513184</ele>
        <time>2013-10-31T14:20:31Z</time>
      </trkpt>
      <trkpt lat="44.27283" lon="6.15653">
        <ele>1581.5061035</ele>
        <time>2013-10-31T14:20:52Z</time>
      </trkpt>
      <trkpt lat="44.27291" lon="6.15675">
        <ele>1578.1413574</ele>
        <time>2013-10-31T14:21:15Z</time>
      </trkpt>
      <trkpt lat="44.27298" lon="6.15689">
        <ele>1575.2573242</ele>
        <time>2013-10-31T14:21:36Z</time>
      </trkpt>
      <trkpt lat="44.27305" lon="6.15699">
        <ele>1571.8928223</ele>
        <time>2013-10-31T14:21:49Z</time>
      </trkpt>
      <trkpt lat="44.2731" lon="6.15716">
        <ele>1568.5283203</ele>
        <time>2013-10-31T14:22:06Z</time>
      </trkpt>
      <trkpt lat="44.27311" lon="6.15735">
        <ele>1566.6057129</ele>
        <time>2013-10-31T14:22:20Z</time>
      </trkpt>
      <trkpt lat="44.27308" lon="6.15765">
        <ele>1563.2409668</ele>
        <time>2013-10-31T14:22:47Z</time>
      </trkpt>
      <trkpt lat="44.27313" lon="6.15789">
        <ele>1559.8762207</ele>
        <time>2013-10-31T14:23:10Z</time>
      </trkpt>
      <trkpt lat="44.27314" lon="6.15824">
        <ele>1557.4731445</ele>
        <time>2013-10-31T14:23:36Z</time>
      </trkpt>
      <trkpt lat="44.27313" lon="6.15866">
        <ele>1554.5891113</ele>
        <time>2013-10-31T14:24:03Z</time>
      </trkpt>
      <trkpt lat="44.2732" lon="6.15901">
        <ele>1552.185791</ele>
        <time>2013-10-31T14:24:26Z</time>
      </trkpt>
      <trkpt lat="44.27322" lon="6.15923">
        <ele>1550.2634277</ele>
        <time>2013-10-31T14:24:42Z</time>
      </trkpt>
      <trkpt lat="44.27323" lon="6.15952">
        <ele>1547.8598633</ele>
        <time>2013-10-31T14:25:02Z</time>
      </trkpt>
      <trkpt lat="44.27331" lon="6.15977">
        <ele>1544.9758301</ele>
        <time>2013-10-31T14:25:23Z</time>
      </trkpt>
      <trkpt lat="44.2734" lon="6.15996">
        <ele>1543.0532227</ele>
        <time>2013-10-31T14:25:42Z</time>
      </trkpt>
      <trkpt lat="44.27355" lon="6.16009">
        <ele>1539.6887207</ele>
        <time>2013-10-31T14:26:00Z</time>
      </trkpt>
      <trkpt lat="44.27365" lon="6.16005">
        <ele>1535.8435059</ele>
        <time>2013-10-31T14:26:11Z</time>
      </trkpt>
      <trkpt lat="44.27374" lon="6.15998">
        <ele>1532.4790039</ele>
        <time>2013-10-31T14:26:21Z</time>
      </trkpt>
      <trkpt lat="44.27377" lon="6.15992">
        <ele>1529.5947266</ele>
        <time>2013-10-31T14:26:29Z</time>
      </trkpt>
      <trkpt lat="44.27381" lon="6.15982">
        <ele>1526.2302246</ele>
        <time>2013-10-31T14:26:39Z</time>
      </trkpt>
      <trkpt lat="44.27388" lon="6.15978">
        <ele>1524.7883301</ele>
        <time>2013-10-31T14:26:46Z</time>
      </trkpt>
      <trkpt lat="44.27395" lon="6.15967">
        <ele>1521.9042969</ele>
        <time>2013-10-31T14:27:00Z</time>
      </trkpt>
      <trkpt lat="44.27396" lon="6.15964">
        <ele>1521.9042969</ele>
        <time>2013-10-31T14:27:02Z</time>
      </trkpt>
      <trkpt lat="44.27399" lon="6.15956">
        <ele>1520.4624023</ele>
        <time>2013-10-31T14:27:09Z</time>
      </trkpt>
      <trkpt lat="44.27401" lon="6.15954">
        <ele>1519.5012207</ele>
        <time>2013-10-31T14:27:12Z</time>
      </trkpt>
      <trkpt lat="44.27412" lon="6.15928">
        <ele>1516.6171875</ele>
        <time>2013-10-31T14:27:30Z</time>
      </trkpt>
      <trkpt lat="44.27414" lon="6.1592">
        <ele>1515.6557617</ele>
        <time>2013-10-31T14:27:37Z</time>
      </trkpt>
      <trkpt lat="44.27416" lon="6.15902">
        <ele>1513.2524414</ele>
        <time>2013-10-31T14:27:51Z</time>
      </trkpt>
      <trkpt lat="44.27425" lon="6.15893">
        <ele>1509.8876953</ele>
        <time>2013-10-31T14:28:04Z</time>
      </trkpt>
      <trkpt lat="44.27433" lon="6.15879">
        <ele>1506.5231934</ele>
        <time>2013-10-31T14:28:18Z</time>
      </trkpt>
      <trkpt lat="44.27437" lon="6.15862">
        <ele>1503.1586914</ele>
        <time>2013-10-31T14:28:33Z</time>
      </trkpt>
      <trkpt lat="44.2744" lon="6.15851">
        <ele>1501.7167969</ele>
        <time>2013-10-31T14:28:41Z</time>
      </trkpt>
      <trkpt lat="44.27445" lon="6.1585">
        <ele>1499.3132324</ele>
        <time>2013-10-31T14:28:57Z</time>
      </trkpt>
      <trkpt lat="44.27447" lon="6.15851">
        <ele>1498.3518066</ele>
        <time>2013-10-31T14:29:15Z</time>
      </trkpt>
      <trkpt lat="44.27446" lon="6.15851">
        <ele>1500.2749023</ele>
        <time>2013-10-31T14:29:17Z</time>
      </trkpt>
      <trkpt lat="44.27446" lon="6.15851">
        <ele>1499.7939453</ele>
        <time>2013-10-31T14:29:55Z</time>
      </trkpt>
      <trkpt lat="44.27445" lon="6.15849">
        <ele>1498.8325195</ele>
        <time>2013-10-31T14:30:58Z</time>
      </trkpt>
      <trkpt lat="44.27443" lon="6.15838">
        <ele>1497.390625</ele>
        <time>2013-10-31T14:31:34Z</time>
      </trkpt>
      <trkpt lat="44.27443" lon="6.15817">
        <ele>1494.5065918</ele>
        <time>2013-10-31T14:31:52Z</time>
      </trkpt>
      <trkpt lat="44.27443" lon="6.15804">
        <ele>1493.5454102</ele>
        <time>2013-10-31T14:32:01Z</time>
      </trkpt>
      <trkpt lat="44.27449" lon="6.15771">
        <ele>1490.1809082</ele>
        <time>2013-10-31T14:32:24Z</time>
      </trkpt>
      <trkpt lat="44.27456" lon="6.15747">
        <ele>1487.7775879</ele>
        <time>2013-10-31T14:32:41Z</time>
      </trkpt>
      <trkpt lat="44.27467" lon="6.15736">
        <ele>1486.3356934</ele>
        <time>2013-10-31T14:32:59Z</time>
      </trkpt>
      <trkpt lat="44.27477" lon="6.15723">
        <ele>1484.4130859</ele>
        <time>2013-10-31T14:33:24Z</time>
      </trkpt>
      <trkpt lat="44.27487" lon="6.15706">
        <ele>1481.5288086</ele>
        <time>2013-10-31T14:33:43Z</time>
      </trkpt>
      <trkpt lat="44.27492" lon="6.15696">
        <ele>1481.0483398</ele>
        <time>2013-10-31T14:33:53Z</time>
      </trkpt>
      <trkpt lat="44.27502" lon="6.15691">
        <ele>1478.1643066</ele>
        <time>2013-10-31T14:34:06Z</time>
      </trkpt>
      <trkpt lat="44.27508" lon="6.15681">
        <ele>1475.7609863</ele>
        <time>2013-10-31T14:34:20Z</time>
      </trkpt>
      <trkpt lat="44.27509" lon="6.15672">
        <ele>1474.7998047</ele>
        <time>2013-10-31T14:34:26Z</time>
      </trkpt>
      <trkpt lat="44.27511" lon="6.15667">
        <ele>1474.3190918</ele>
        <time>2013-10-31T14:34:30Z</time>
      </trkpt>
      <trkpt lat="44.27513" lon="6.15656">
        <ele>1473.3579102</ele>
        <time>2013-10-31T14:34:37Z</time>
      </trkpt>
      <trkpt lat="44.27517" lon="6.15646">
        <ele>1472.8771973</ele>
        <time>2013-10-31T14:34:44Z</time>
      </trkpt>
      <trkpt lat="44.27526" lon="6.15634">
        <ele>1472.3964844</ele>
        <time>2013-10-31T14:34:56Z</time>
      </trkpt>
      <trkpt lat="44.27528" lon="6.15632">
        <ele>1472.3964844</ele>
        <time>2013-10-31T14:34:58Z</time>
      </trkpt>
      <trkpt lat="44.27535" lon="6.15626">
        <ele>1471.4350586</ele>
        <time>2013-10-31T14:35:06Z</time>
      </trkpt>
      <trkpt lat="44.27547" lon="6.15621">
        <ele>1468.0705566</ele>
        <time>2013-10-31T14:35:18Z</time>
      </trkpt>
      <trkpt lat="44.27577" lon="6.15606">
        <ele>1467.1091309</ele>
        <time>2013-10-31T14:35:50Z</time>
      </trkpt>
      <trkpt lat="44.27618" lon="6.15589">
        <ele>1464.7058105</ele>
        <time>2013-10-31T14:36:34Z</time>
      </trkpt>
      <trkpt lat="44.2763" lon="6.15571">
        <ele>1462.7832031</ele>
        <time>2013-10-31T14:37:15Z</time>
      </trkpt>
      <trkpt lat="44.27636" lon="6.15554">
        <ele>1461.3413086</ele>
        <time>2013-10-31T14:37:41Z</time>
      </trkpt>
      <trkpt lat="44.27656" lon="6.15537">
        <ele>1458.4572754</ele>
        <time>2013-10-31T14:38:07Z</time>
      </trkpt>
      <trkpt lat="44.27661" lon="6.15526">
        <ele>1455.0927734</ele>
        <time>2013-10-31T14:38:25Z</time>
      </trkpt>
      <trkpt lat="44.27674" lon="6.15528">
        <ele>1452.6894531</ele>
        <time>2013-10-31T14:39:05Z</time>
      </trkpt>
      <trkpt lat="44.27689" lon="6.15529">
        <ele>1449.324707</ele>
        <time>2013-10-31T14:39:26Z</time>
      </trkpt>
      <trkpt lat="44.27709" lon="6.15531">
        <ele>1445.9602051</ele>
        <time>2013-10-31T14:39:51Z</time>
      </trkpt>
      <trkpt lat="44.2773" lon="6.1553">
        <ele>1443.0761719</ele>
        <time>2013-10-31T14:40:16Z</time>
      </trkpt>
      <trkpt lat="44.27742" lon="6.15532">
        <ele>1440.1923828</ele>
        <time>2013-10-31T14:40:44Z</time>
      </trkpt>
      <trkpt lat="44.27756" lon="6.15532">
        <ele>1436.8276367</ele>
        <time>2013-10-31T14:41:01Z</time>
      </trkpt>
      <trkpt lat="44.27767" lon="6.1554">
        <ele>1433.4628906</ele>
        <time>2013-10-31T14:41:17Z</time>
      </trkpt>
      <trkpt lat="44.27773" lon="6.15544">
        <ele>1430.5791016</ele>
        <time>2013-10-31T14:41:33Z</time>
      </trkpt>
      <trkpt lat="44.27778" lon="6.15559">
        <ele>1426.7338867</ele>
        <time>2013-10-31T14:41:49Z</time>
      </trkpt>
      <trkpt lat="44.27786" lon="6.15568">
        <ele>1423.8498535</ele>
        <time>2013-10-31T14:42:14Z</time>
      </trkpt>
      <trkpt lat="44.27789" lon="6.1558">
        <ele>1420.0046387</ele>
        <time>2013-10-31T14:42:31Z</time>
      </trkpt>
      <trkpt lat="44.27793" lon="6.15593">
        <ele>1417.1206055</ele>
        <time>2013-10-31T14:42:49Z</time>
      </trkpt>
      <trkpt lat="44.27787" lon="6.15611">
        <ele>1414.7172852</ele>
        <time>2013-10-31T14:43:22Z</time>
      </trkpt>
      <trkpt lat="44.27793" lon="6.15617">
        <ele>1411.8334961</ele>
        <time>2013-10-31T14:43:47Z</time>
      </trkpt>
      <trkpt lat="44.27807" lon="6.15621">
        <ele>1408.9494629</ele>
        <time>2013-10-31T14:44:04Z</time>
      </trkpt>
      <trkpt lat="44.27814" lon="6.15633">
        <ele>1405.104248</ele>
        <time>2013-10-31T14:44:19Z</time>
      </trkpt>
      <trkpt lat="44.27821" lon="6.15647">
        <ele>1402.2199707</ele>
        <time>2013-10-31T14:44:34Z</time>
      </trkpt>
      <trkpt lat="44.27821" lon="6.15648">
        <ele>1402.2199707</ele>
        <time>2013-10-31T14:44:35Z</time>
      </trkpt>
      <trkpt lat="44.27828" lon="6.15666">
        <ele>1398.8554688</ele>
        <time>2013-10-31T14:44:52Z</time>
      </trkpt>
      <trkpt lat="44.2783" lon="6.15679">
        <ele>1395.4909668</ele>
        <time>2013-10-31T14:45:11Z</time>
      </trkpt>
      <trkpt lat="44.27835" lon="6.15682">
        <ele>1394.529541</ele>
        <time>2013-10-31T14:45:24Z</time>
      </trkpt>
      <trkpt lat="44.2784" lon="6.15689">
        <ele>1391.645752</ele>
        <time>2013-10-31T14:45:52Z</time>
      </trkpt>
      <trkpt lat="44.27862" lon="6.15686">
        <ele>1387.800293</ele>
        <time>2013-10-31T14:46:17Z</time>
      </trkpt>
      <trkpt lat="44.27897" lon="6.15691">
        <ele>1385.3969727</ele>
        <time>2013-10-31T14:46:48Z</time>
      </trkpt>
      <trkpt lat="44.27924" lon="6.15699">
        <ele>1382.0324707</ele>
        <time>2013-10-31T14:47:16Z</time>
      </trkpt>
      <trkpt lat="44.27938" lon="6.15696">
        <ele>1379.1484375</ele>
        <time>2013-10-31T14:47:37Z</time>
      </trkpt>
      <trkpt lat="44.2796" lon="6.15706">
        <ele>1376.7453613</ele>
        <time>2013-10-31T14:47:57Z</time>
      </trkpt>
      <trkpt lat="44.27968" lon="6.15699">
        <ele>1373.3808594</ele>
        <time>2013-10-31T14:48:23Z</time>
      </trkpt>
      <trkpt lat="44.27974" lon="6.15668">
        <ele>1370.9772949</ele>
        <time>2013-10-31T14:48:56Z</time>
      </trkpt>
      <trkpt lat="44.27985" lon="6.15664">
        <ele>1367.6125488</ele>
        <time>2013-10-31T14:49:16Z</time>
      </trkpt>
      <trkpt lat="44.27991" lon="6.15656">
        <ele>1364.2480469</ele>
        <time>2013-10-31T14:49:30Z</time>
      </trkpt>
      <trkpt lat="44.28001" lon="6.15658">
        <ele>1362.3254395</ele>
        <time>2013-10-31T14:49:42Z</time>
      </trkpt>
      <trkpt lat="44.28011" lon="6.15652">
        <ele>1359.9221191</ele>
        <time>2013-10-31T14:49:52Z</time>
      </trkpt>
      <trkpt lat="44.28026" lon="6.15639">
        <ele>1356.5576172</ele>
        <time>2013-10-31T14:50:07Z</time>
      </trkpt>
      <trkpt lat="44.28032" lon="6.15628">
        <ele>1353.673584</ele>
        <time>2013-10-31T14:50:21Z</time>
      </trkpt>
      <trkpt lat="44.28043" lon="6.15625">
        <ele>1350.309082</ele>
        <time>2013-10-31T14:50:35Z</time>
      </trkpt>
      <trkpt lat="44.28052" lon="6.15623">
        <ele>1347.4250488</ele>
        <time>2013-10-31T14:50:50Z</time>
      </trkpt>
      <trkpt lat="44.28066" lon="6.15621">
        <ele>1344.5410156</ele>
        <time>2013-10-31T14:51:03Z</time>
      </trkpt>
      <trkpt lat="44.28076" lon="6.15609">
        <ele>1341.6572266</ele>
        <time>2013-10-31T14:51:18Z</time>
      </trkpt>
      <trkpt lat="44.28082" lon="6.15604">
        <ele>1338.2924805</ele>
        <time>2013-10-31T14:51:35Z</time>
      </trkpt>
      <trkpt lat="44.28092" lon="6.156">
        <ele>1334.9279785</ele>
        <time>2013-10-31T14:51:49Z</time>
      </trkpt>
      <trkpt lat="44.28103" lon="6.15592">
        <ele>1331.5632324</ele>
        <time>2013-10-31T14:52:07Z</time>
      </trkpt>
      <trkpt lat="44.28113" lon="6.15578">
        <ele>1328.6794434</ele>
        <time>2013-10-31T14:52:25Z</time>
      </trkpt>
      <trkpt lat="44.28116" lon="6.15571">
        <ele>1326.7568359</ele>
        <time>2013-10-31T14:52:31Z</time>
      </trkpt>
      <trkpt lat="44.28128" lon="6.15563">
        <ele>1323.3920898</ele>
        <time>2013-10-31T14:52:47Z</time>
      </trkpt>
      <trkpt lat="44.28138" lon="6.15556">
        <ele>1320.5080566</ele>
        <time>2013-10-31T14:53:01Z</time>
      </trkpt>
      <trkpt lat="44.28155" lon="6.1555">
        <ele>1317.1435547</ele>
        <time>2013-10-31T14:53:19Z</time>
      </trkpt>
      <trkpt lat="44.2817" lon="6.15586">
        <ele>1314.7402344</ele>
        <time>2013-10-31T14:53:50Z</time>
      </trkpt>
      <trkpt lat="44.28167" lon="6.15608">
        <ele>1311.3757324</ele>
        <time>2013-10-31T14:54:15Z</time>
      </trkpt>
      <trkpt lat="44.28177" lon="6.15632">
        <ele>1308.0112305</ele>
        <time>2013-10-31T14:54:40Z</time>
      </trkpt>
      <trkpt lat="44.28178" lon="6.15618">
        <ele>1304.1657715</ele>
        <time>2013-10-31T14:55:06Z</time>
      </trkpt>
      <trkpt lat="44.28179" lon="6.15618">
        <ele>1304.1657715</ele>
        <time>2013-10-31T14:55:07Z</time>
      </trkpt>
      <trkpt lat="44.28187" lon="6.15628">
        <ele>1300.8010254</ele>
        <time>2013-10-31T14:55:27Z</time>
      </trkpt>
      <trkpt lat="44.2819" lon="6.15664">
        <ele>1297.4365234</ele>
        <time>2013-10-31T14:55:52Z</time>
      </trkpt>
      <trkpt lat="44.28185" lon="6.15711">
        <ele>1294.5524902</ele>
        <time>2013-10-31T14:56:20Z</time>
      </trkpt>
      <trkpt lat="44.2817" lon="6.15762">
        <ele>1292.1494141</ele>
        <time>2013-10-31T14:56:47Z</time>
      </trkpt>
      <trkpt lat="44.28168" lon="6.15771">
        <ele>1292.1494141</ele>
        <time>2013-10-31T14:56:56Z</time>
      </trkpt>
      <trkpt lat="44.28174" lon="6.15776">
        <ele>1290.7070313</ele>
        <time>2013-10-31T14:57:07Z</time>
      </trkpt>
      <trkpt lat="44.28175" lon="6.1579">
        <ele>1288.3039551</ele>
        <time>2013-10-31T14:57:22Z</time>
      </trkpt>
      <trkpt lat="44.28172" lon="6.15808">
        <ele>1286.3813477</ele>
        <time>2013-10-31T14:57:37Z</time>
      </trkpt>
      <trkpt lat="44.28176" lon="6.1582">
        <ele>1285.4199219</ele>
        <time>2013-10-31T14:57:43Z</time>
      </trkpt>
      <trkpt lat="44.28181" lon="6.15836">
        <ele>1283.4973145</ele>
        <time>2013-10-31T14:57:56Z</time>
      </trkpt>
      <trkpt lat="44.28179" lon="6.15845">
        <ele>1280.6135254</ele>
        <time>2013-10-31T14:58:08Z</time>
      </trkpt>
      <trkpt lat="44.28176" lon="6.15838">
        <ele>1279.1713867</ele>
        <time>2013-10-31T14:58:20Z</time>
      </trkpt>
      <trkpt lat="44.28188" lon="6.15829">
        <ele>1277.7294922</ele>
        <time>2013-10-31T14:58:35Z</time>
      </trkpt>
      <trkpt lat="44.28194" lon="6.15813">
        <ele>1276.2875977</ele>
        <time>2013-10-31T14:58:48Z</time>
      </trkpt>
      <trkpt lat="44.28209" lon="6.15799">
        <ele>1274.845459</ele>
        <time>2013-10-31T14:59:02Z</time>
      </trkpt>
      <trkpt lat="44.28217" lon="6.15783">
        <ele>1272.9228516</ele>
        <time>2013-10-31T14:59:16Z</time>
      </trkpt>
      <trkpt lat="44.28229" lon="6.15775">
        <ele>1270.0388184</ele>
        <time>2013-10-31T14:59:29Z</time>
      </trkpt>
      <trkpt lat="44.28242" lon="6.15761">
        <ele>1268.5969238</ele>
        <time>2013-10-31T14:59:42Z</time>
      </trkpt>
      <trkpt lat="44.28255" lon="6.15757">
        <ele>1267.635498</ele>
        <time>2013-10-31T14:59:50Z</time>
      </trkpt>
      <trkpt lat="44.2827" lon="6.15752">
        <ele>1266.1936035</ele>
        <time>2013-10-31T15:00:06Z</time>
      </trkpt>
      <trkpt lat="44.28283" lon="6.15742">
        <ele>1264.751709</ele>
        <time>2013-10-31T15:00:19Z</time>
      </trkpt>
      <trkpt lat="44.2829" lon="6.15735">
        <ele>1264.2709961</ele>
        <time>2013-10-31T15:00:25Z</time>
      </trkpt>
      <trkpt lat="44.28303" lon="6.15724">
        <ele>1263.3098145</ele>
        <time>2013-10-31T15:00:39Z</time>
      </trkpt>
      <trkpt lat="44.28315" lon="6.15711">
        <ele>1260.4257813</ele>
        <time>2013-10-31T15:00:52Z</time>
      </trkpt>
      <trkpt lat="44.28327" lon="6.15698">
        <ele>1258.5029297</ele>
        <time>2013-10-31T15:01:09Z</time>
      </trkpt>
      <trkpt lat="44.28338" lon="6.15692">
        <ele>1256.0996094</ele>
        <time>2013-10-31T15:01:22Z</time>
      </trkpt>
      <trkpt lat="44.28343" lon="6.15693">
        <ele>1256.0996094</ele>
        <time>2013-10-31T15:01:25Z</time>
      </trkpt>
      <trkpt lat="44.28348" lon="6.15708">
        <ele>1253.2158203</ele>
        <time>2013-10-31T15:01:38Z</time>
      </trkpt>
      <trkpt lat="44.28348" lon="6.1572">
        <ele>1249.8513184</ele>
        <time>2013-10-31T15:01:53Z</time>
      </trkpt>
      <trkpt lat="44.28345" lon="6.15733">
        <ele>1247.447998</ele>
        <time>2013-10-31T15:02:07Z</time>
      </trkpt>
      <trkpt lat="44.28334" lon="6.15758">
        <ele>1246.4868164</ele>
        <time>2013-10-31T15:02:31Z</time>
      </trkpt>
      <trkpt lat="44.28323" lon="6.15772">
        <ele>1246.0061035</ele>
        <time>2013-10-31T15:02:45Z</time>
      </trkpt>
      <trkpt lat="44.28316" lon="6.15788">
        <ele>1245.0446777</ele>
        <time>2013-10-31T15:03:00Z</time>
      </trkpt>
      <trkpt lat="44.28313" lon="6.15792">
        <ele>1244.0834961</ele>
        <time>2013-10-31T15:03:05Z</time>
      </trkpt>
      <trkpt lat="44.28301" lon="6.15803">
        <ele>1243.1218262</ele>
        <time>2013-10-31T15:03:17Z</time>
      </trkpt>
      <trkpt lat="44.2829" lon="6.15821">
        <ele>1241.1992188</ele>
        <time>2013-10-31T15:03:30Z</time>
      </trkpt>
      <trkpt lat="44.28286" lon="6.15844">
        <ele>1239.7573242</ele>
        <time>2013-10-31T15:03:42Z</time>
      </trkpt>
      <trkpt lat="44.2829" lon="6.1585">
        <ele>1238.7961426</ele>
        <time>2013-10-31T15:03:52Z</time>
      </trkpt>
      <trkpt lat="44.28299" lon="6.15857">
        <ele>1236.873291</ele>
        <time>2013-10-31T15:04:10Z</time>
      </trkpt>
      <trkpt lat="44.28315" lon="6.15851">
        <ele>1233.5087891</ele>
        <time>2013-10-31T15:04:31Z</time>
      </trkpt>
      <trkpt lat="44.28324" lon="6.15865">
        <ele>1229.6635742</ele>
        <time>2013-10-31T15:04:47Z</time>
      </trkpt>
      <trkpt lat="44.28321" lon="6.15879">
        <ele>1226.779541</ele>
        <time>2013-10-31T15:04:58Z</time>
      </trkpt>
      <trkpt lat="44.28325" lon="6.15891">
        <ele>1223.4150391</ele>
        <time>2013-10-31T15:05:15Z</time>
      </trkpt>
      <trkpt lat="44.28334" lon="6.15905">
        <ele>1220.050293</ele>
        <time>2013-10-31T15:05:33Z</time>
      </trkpt>
      <trkpt lat="44.28345" lon="6.15911">
        <ele>1216.685791</ele>
        <time>2013-10-31T15:05:47Z</time>
      </trkpt>
      <trkpt lat="44.2836" lon="6.1592">
        <ele>1213.8017578</ele>
        <time>2013-10-31T15:06:06Z</time>
      </trkpt>
      <trkpt lat="44.28367" lon="6.15922">
        <ele>1210.9177246</ele>
        <time>2013-10-31T15:06:19Z</time>
      </trkpt>
      <trkpt lat="44.28379" lon="6.15932">
        <ele>1207.0725098</ele>
        <time>2013-10-31T15:06:35Z</time>
      </trkpt>
      <trkpt lat="44.28392" lon="6.15935">
        <ele>1205.1499023</ele>
        <time>2013-10-31T15:06:59Z</time>
      </trkpt>
      <trkpt lat="44.28393" lon="6.15937">
        <ele>1204.6691895</ele>
        <time>2013-10-31T15:07:02Z</time>
      </trkpt>
      <trkpt lat="44.28403" lon="6.15935">
        <ele>1202.2658691</ele>
        <time>2013-10-31T15:07:18Z</time>
      </trkpt>
      <trkpt lat="44.28411" lon="6.1593">
        <ele>1201.3046875</ele>
        <time>2013-10-31T15:07:27Z</time>
      </trkpt>
      <trkpt lat="44.28429" lon="6.15918">
        <ele>1199.3820801</ele>
        <time>2013-10-31T15:07:46Z</time>
      </trkpt>
      <trkpt lat="44.28435" lon="6.15913">
        <ele>1197.4594727</ele>
        <time>2013-10-31T15:08:05Z</time>
      </trkpt>
      <trkpt lat="44.28436" lon="6.15911">
        <ele>1196.9787598</ele>
        <time>2013-10-31T15:08:06Z</time>
      </trkpt>
      <trkpt lat="44.28441" lon="6.15903">
        <ele>1196.498291</ele>
        <time>2013-10-31T15:08:14Z</time>
      </trkpt>
      <trkpt lat="44.28454" lon="6.15893">
        <ele>1195.0559082</ele>
        <time>2013-10-31T15:08:30Z</time>
      </trkpt>
      <trkpt lat="44.28464" lon="6.15883">
        <ele>1192.1721191</ele>
        <time>2013-10-31T15:08:46Z</time>
      </trkpt>
      <trkpt lat="44.28465" lon="6.15879">
        <ele>1191.6914063</ele>
        <time>2013-10-31T15:08:48Z</time>
      </trkpt>
      <trkpt lat="44.28469" lon="6.15857">
        <ele>1189.2880859</ele>
        <time>2013-10-31T15:09:03Z</time>
      </trkpt>
      <trkpt lat="44.28469" lon="6.15842">
        <ele>1187.8461914</ele>
        <time>2013-10-31T15:09:13Z</time>
      </trkpt>
      <trkpt lat="44.28483" lon="6.15818">
        <ele>1185.923584</ele>
        <time>2013-10-31T15:09:32Z</time>
      </trkpt>
      <trkpt lat="44.28498" lon="6.15795">
        <ele>1184.0009766</ele>
        <time>2013-10-31T15:09:50Z</time>
      </trkpt>
      <trkpt lat="44.28508" lon="6.1578">
        <ele>1182.559082</ele>
        <time>2013-10-31T15:10:03Z</time>
      </trkpt>
      <trkpt lat="44.28511" lon="6.15775">
        <ele>1182.559082</ele>
        <time>2013-10-31T15:10:08Z</time>
      </trkpt>
      <trkpt lat="44.28523" lon="6.15753">
        <ele>1181.1171875</ele>
        <time>2013-10-31T15:10:26Z</time>
      </trkpt>
      <trkpt lat="44.28521" lon="6.15735">
        <ele>1178.2329102</ele>
        <time>2013-10-31T15:10:45Z</time>
      </trkpt>
      <trkpt lat="44.28524" lon="6.15714">
        <ele>1176.7910156</ele>
        <time>2013-10-31T15:10:57Z</time>
      </trkpt>
      <trkpt lat="44.28528" lon="6.1569">
        <ele>1175.8295898</ele>
        <time>2013-10-31T15:11:11Z</time>
      </trkpt>
      <trkpt lat="44.28542" lon="6.15675">
        <ele>1173.9069824</ele>
        <time>2013-10-31T15:11:24Z</time>
      </trkpt>
      <trkpt lat="44.28566" lon="6.1567">
        <ele>1171.0231934</ele>
        <time>2013-10-31T15:11:44Z</time>
      </trkpt>
      <trkpt lat="44.28569" lon="6.15666">
        <ele>1170.5424805</ele>
        <time>2013-10-31T15:11:48Z</time>
      </trkpt>
      <trkpt lat="44.28578" lon="6.15656">
        <ele>1167.6584473</ele>
        <time>2013-10-31T15:12:04Z</time>
      </trkpt>
      <trkpt lat="44.28584" lon="6.15641">
        <ele>1164.7746582</ele>
        <time>2013-10-31T15:12:23Z</time>
      </trkpt>
      <trkpt lat="44.28602" lon="6.15628">
        <ele>1161.890625</ele>
        <time>2013-10-31T15:12:44Z</time>
      </trkpt>
      <trkpt lat="44.28604" lon="6.15624">
        <ele>1160.9291992</ele>
        <time>2013-10-31T15:12:48Z</time>
      </trkpt>
      <trkpt lat="44.28613" lon="6.1561">
        <ele>1159.0065918</ele>
        <time>2013-10-31T15:13:00Z</time>
      </trkpt>
      <trkpt lat="44.28614" lon="6.156">
        <ele>1158.0454102</ele>
        <time>2013-10-31T15:13:05Z</time>
      </trkpt>
      <trkpt lat="44.28619" lon="6.15594">
        <ele>1157.0839844</ele>
        <time>2013-10-31T15:13:13Z</time>
      </trkpt>
      <trkpt lat="44.28623" lon="6.15574">
        <ele>1156.1225586</ele>
        <time>2013-10-31T15:13:27Z</time>
      </trkpt>
      <trkpt lat="44.28627" lon="6.15548">
        <ele>1156.6032715</ele>
        <time>2013-10-31T15:13:42Z</time>
      </trkpt>
      <trkpt lat="44.28625" lon="6.15512">
        <ele>1155.6420898</ele>
        <time>2013-10-31T15:14:01Z</time>
      </trkpt>
      <trkpt lat="44.28625" lon="6.15511">
        <ele>1156.1225586</ele>
        <time>2013-10-31T15:14:02Z</time>
      </trkpt>
      <trkpt lat="44.28625" lon="6.15485">
        <ele>1154.6806641</ele>
        <time>2013-10-31T15:14:17Z</time>
      </trkpt>
      <trkpt lat="44.28627" lon="6.15478">
        <ele>1154.2001953</ele>
        <time>2013-10-31T15:14:22Z</time>
      </trkpt>
      <trkpt lat="44.28633" lon="6.15444">
        <ele>1154.6806641</ele>
        <time>2013-10-31T15:14:40Z</time>
      </trkpt>
      <trkpt lat="44.28628" lon="6.15417">
        <ele>1155.6420898</ele>
        <time>2013-10-31T15:14:58Z</time>
      </trkpt>
      <trkpt lat="44.28636" lon="6.1541">
        <ele>1155.6420898</ele>
        <time>2013-10-31T15:15:02Z</time>
      </trkpt>
      <trkpt lat="44.28643" lon="6.15384">
        <ele>1153.7194824</ele>
        <time>2013-10-31T15:15:15Z</time>
      </trkpt>
      <trkpt lat="44.28656" lon="6.15367">
        <ele>1152.2773438</ele>
        <time>2013-10-31T15:15:28Z</time>
      </trkpt>
      <trkpt lat="44.28663" lon="6.15348">
        <ele>1150.3549805</ele>
        <time>2013-10-31T15:15:45Z</time>
      </trkpt>
      <trkpt lat="44.28669" lon="6.15326">
        <ele>1148.9128418</ele>
        <time>2013-10-31T15:15:59Z</time>
      </trkpt>
      <trkpt lat="44.28673" lon="6.15303">
        <ele>1147.951416</ele>
        <time>2013-10-31T15:16:15Z</time>
      </trkpt>
      <trkpt lat="44.28676" lon="6.15285">
        <ele>1146.5095215</ele>
        <time>2013-10-31T15:16:30Z</time>
      </trkpt>
      <trkpt lat="44.28684" lon="6.15257">
        <ele>1146.0288086</ele>
        <time>2013-10-31T15:16:45Z</time>
      </trkpt>
      <trkpt lat="44.28694" lon="6.15242">
        <ele>1145.0673828</ele>
        <time>2013-10-31T15:17:00Z</time>
      </trkpt>
      <trkpt lat="44.28705" lon="6.15225">
        <ele>1143.1447754</ele>
        <time>2013-10-31T15:17:16Z</time>
      </trkpt>
      <trkpt lat="44.2871" lon="6.1522">
        <ele>1143.6254883</ele>
        <time>2013-10-31T15:17:24Z</time>
      </trkpt>
      <trkpt lat="44.28716" lon="6.15189">
        <ele>1142.6643066</ele>
        <time>2013-10-31T15:17:44Z</time>
      </trkpt>
      <trkpt lat="44.28723" lon="6.15172">
        <ele>1139.7802734</ele>
        <time>2013-10-31T15:17:59Z</time>
      </trkpt>
      <trkpt lat="44.28729" lon="6.15141">
        <ele>1136.8962402</ele>
        <time>2013-10-31T15:18:26Z</time>
      </trkpt>
      <trkpt lat="44.28706" lon="6.15144">
        <ele>1134.0124512</ele>
        <time>2013-10-31T15:18:47Z</time>
      </trkpt>
      <trkpt lat="44.28716" lon="6.1511">
        <ele>1133.5317383</ele>
        <time>2013-10-31T15:19:10Z</time>
      </trkpt>
      <trkpt lat="44.28737" lon="6.15087">
        <ele>1130.6477051</ele>
        <time>2013-10-31T15:19:34Z</time>
      </trkpt>
      <trkpt lat="44.2876" lon="6.15079">
        <ele>1127.2832031</ele>
        <time>2013-10-31T15:19:57Z</time>
      </trkpt>
      <trkpt lat="44.28775" lon="6.15076">
        <ele>1124.8798828</ele>
        <time>2013-10-31T15:20:11Z</time>
      </trkpt>
      <trkpt lat="44.28798" lon="6.15057">
        <ele>1121.9958496</ele>
        <time>2013-10-31T15:20:34Z</time>
      </trkpt>
      <trkpt lat="44.28798" lon="6.15032">
        <ele>1118.6313477</ele>
        <time>2013-10-31T15:20:53Z</time>
      </trkpt>
      <trkpt lat="44.28799" lon="6.15012">
        <ele>1115.2666016</ele>
        <time>2013-10-31T15:21:04Z</time>
      </trkpt>
      <trkpt lat="44.28804" lon="6.15001">
        <ele>1113.3439941</ele>
        <time>2013-10-31T15:21:16Z</time>
      </trkpt>
      <trkpt lat="44.28824" lon="6.14998">
        <ele>1109.979248</ele>
        <time>2013-10-31T15:21:30Z</time>
      </trkpt>
      <trkpt lat="44.28846" lon="6.14988">
        <ele>1108.0568848</ele>
        <time>2013-10-31T15:21:53Z</time>
      </trkpt>
      <trkpt lat="44.2886" lon="6.14986">
        <ele>1104.6921387</ele>
        <time>2013-10-31T15:22:07Z</time>
      </trkpt>
      <trkpt lat="44.28869" lon="6.14973">
        <ele>1101.8083496</ele>
        <time>2013-10-31T15:22:23Z</time>
      </trkpt>
      <trkpt lat="44.2888" lon="6.14959">
        <ele>1098.4433594</ele>
        <time>2013-10-31T15:22:36Z</time>
      </trkpt>
      <trkpt lat="44.28888" lon="6.14977">
        <ele>1096.5209961</ele>
        <time>2013-10-31T15:22:57Z</time>
      </trkpt>
      <trkpt lat="44.28884" lon="6.14993">
        <ele>1096.0402832</ele>
        <time>2013-10-31T15:23:03Z</time>
      </trkpt>
      <trkpt lat="44.28883" lon="6.14996">
        <ele>1096.0402832</ele>
        <time>2013-10-31T15:23:05Z</time>
      </trkpt>
      <trkpt lat="44.28868" lon="6.15023">
        <ele>1094.1176758</ele>
        <time>2013-10-31T15:23:27Z</time>
      </trkpt>
      <trkpt lat="44.28856" lon="6.15049">
        <ele>1092.6757813</ele>
        <time>2013-10-31T15:23:57Z</time>
      </trkpt>
      <trkpt lat="44.28855" lon="6.15054">
        <ele>1092.6757813</ele>
        <time>2013-10-31T15:24:25Z</time>
      </trkpt>
      <trkpt lat="44.28856" lon="6.1506">
        <ele>1092.1950684</ele>
        <time>2013-10-31T15:24:46Z</time>
      </trkpt>
      <trkpt lat="44.28856" lon="6.1506">
        <ele>1091.2336426</ele>
        <time>2013-10-31T15:26:02Z</time>
      </trkpt>
      <trkpt lat="44.28868" lon="6.15053">
        <ele>1082.5390625</ele>
      </trkpt>
      <trkpt lat="44.28874" lon="6.15045">
        <ele>1081.703125</ele>
      </trkpt>
      <trkpt lat="44.28883" lon="6.1504">
        <ele>1079.640625</ele>
      </trkpt>
      <trkpt lat="44.28893" lon="6.1504">
        <ele>1077.53125</ele>
      </trkpt>
      <trkpt lat="44.28904" lon="6.15038">
        <ele>1075.6679688</ele>
      </trkpt>
      <trkpt lat="44.28911" lon="6.15032">
        <ele>1074.609375</ele>
      </trkpt>
      <trkpt lat="44.28917" lon="6.15023">
        <ele>1074.1953125</ele>
      </trkpt>
      <trkpt lat="44.28918" lon="6.1501">
        <ele>1074.1210938</ele>
      </trkpt>
      <trkpt lat="44.28922" lon="6.15001">
        <ele>1073.4726563</ele>
      </trkpt>
      <trkpt lat="44.28927" lon="6.15012">
        <ele>1072.8164063</ele>
      </trkpt>
      <trkpt lat="44.28931" lon="6.15025">
        <ele>1072.46875</ele>
      </trkpt>
      <trkpt lat="44.28935" lon="6.15036">
        <ele>1072.2851563</ele>
      </trkpt>
      <trkpt lat="44.28938" lon="6.15047">
        <ele>1072.5117188</ele>
      </trkpt>
      <trkpt lat="44.28942" lon="6.15058">
        <ele>1073.15625</ele>
      </trkpt>
      <trkpt lat="44.2894" lon="6.15071">
        <ele>1074.1679688</ele>
      </trkpt>
      <trkpt lat="44.28944" lon="6.15082">
        <ele>1075.4453125</ele>
      </trkpt>
      <trkpt lat="44.28951" lon="6.15089">
        <ele>1076.4179688</ele>
      </trkpt>
      <trkpt lat="44.28962" lon="6.15091">
        <ele>1077.0429688</ele>
      </trkpt>
      <trkpt lat="44.28969" lon="6.15097">
        <ele>1078.0351563</ele>
      </trkpt>
      <trkpt lat="44.28976" lon="6.15104">
        <ele>1079.7304688</ele>
      </trkpt>
      <trkpt lat="44.28983" lon="6.15111">
        <ele>1081.4335938</ele>
      </trkpt>
      <trkpt lat="44.28992" lon="6.15115">
        <ele>1082.8710938</ele>
      </trkpt>
      <trkpt lat="44.29001" lon="6.15119">
        <ele>1084.4960938</ele>
      </trkpt>
      <trkpt lat="44.2901" lon="6.15115">
        <ele>1084.6796875</ele>
      </trkpt>
      <trkpt lat="44.29019" lon="6.15106">
        <ele>1084.0703125</ele>
      </trkpt>
      <trkpt lat="44.29028" lon="6.15102">
        <ele>1084.2734375</ele>
      </trkpt>
      <trkpt lat="44.29037" lon="6.15095">
        <ele>1084.0351563</ele>
      </trkpt>
      <trkpt lat="44.29044" lon="6.15089">
        <ele>1083.625</ele>
      </trkpt>
      <trkpt lat="44.29053" lon="6.15084">
        <ele>1083.8398438</ele>
      </trkpt>
      <trkpt lat="44.2906" lon="6.15078">
        <ele>1083.4921875</ele>
      </trkpt>
      <trkpt lat="44.29069" lon="6.15073">
        <ele>1083.6640625</ele>
      </trkpt>
      <trkpt lat="44.2908" lon="6.15073">
        <ele>1084.9179688</ele>
      </trkpt>
      <trkpt lat="44.29078" lon="6.15089">
        <ele>1087.9765625</ele>
      </trkpt>
      <trkpt lat="44.29073" lon="6.15102">
        <ele>1090.15625</ele>
      </trkpt>
      <trkpt lat="44.29069" lon="6.15115">
        <ele>1092.7695313</ele>
      </trkpt>
      <trkpt lat="44.29062" lon="6.15124">
        <ele>1093.5898438</ele>
      </trkpt>
      <trkpt lat="44.29055" lon="6.1513">
        <ele>1093.921875</ele>
      </trkpt>
      <trkpt lat="44.29051" lon="6.15143">
        <ele>1096.5898438</ele>
      </trkpt>
      <trkpt lat="44.29046" lon="6.15152">
        <ele>1097.8398438</ele>
      </trkpt>
      <trkpt lat="44.29041" lon="6.15163">
        <ele>1099.2617188</ele>
      </trkpt>
      <trkpt lat="44.29037" lon="6.15176">
        <ele>1101.4570313</ele>
      </trkpt>
      <trkpt lat="44.29032" lon="6.15187">
        <ele>1102.6875</ele>
      </trkpt>
      <trkpt lat="44.2903" lon="6.152">
        <ele>1104.828125</ele>
      </trkpt>
      <trkpt lat="44.2903" lon="6.15216">
        <ele>1107.7148438</ele>
      </trkpt>
      <trkpt lat="44.2903" lon="6.15231">
        <ele>1110.6054688</ele>
      </trkpt>
      <trkpt lat="44.2903" lon="6.15246">
        <ele>1112.6757813</ele>
      </trkpt>
      <trkpt lat="44.29026" lon="6.15257">
        <ele>1112.953125</ele>
      </trkpt>
      <trkpt lat="44.29016" lon="6.15262">
        <ele>1111.859375</ele>
      </trkpt>
      <trkpt lat="44.29007" lon="6.15266">
        <ele>1111.4375</ele>
      </trkpt>
      <trkpt lat="44.28999" lon="6.15273">
        <ele>1111.5976563</ele>
      </trkpt>
      <trkpt lat="44.28992" lon="6.15279">
        <ele>1112.0195313</ele>
      </trkpt>
      <trkpt lat="44.28985" lon="6.15286">
        <ele>1112.6875</ele>
      </trkpt>
      <trkpt lat="44.28978" lon="6.15293">
        <ele>1113.4765625</ele>
      </trkpt>
      <trkpt lat="44.28971" lon="6.15299">
        <ele>1114.390625</ele>
      </trkpt>
      <trkpt lat="44.28962" lon="6.15304">
        <ele>1114.9804688</ele>
      </trkpt>
      <trkpt lat="44.28953" lon="6.15308">
        <ele>1115.671875</ele>
      </trkpt>
      <trkpt lat="44.28947" lon="6.15317">
        <ele>1117.40625</ele>
      </trkpt>
      <trkpt lat="44.28944" lon="6.15328">
        <ele>1120.0078125</ele>
      </trkpt>
      <trkpt lat="44.2894" lon="6.15339">
        <ele>1122.7929688</ele>
      </trkpt>
      <trkpt lat="44.28938" lon="6.15352">
        <ele>1126.0507813</ele>
      </trkpt>
      <trkpt lat="44.28938" lon="6.15367">
        <ele>1129.921875</ele>
      </trkpt>
      <trkpt lat="44.28933" lon="6.15378">
        <ele>1132.6015625</ele>
      </trkpt>
      <trkpt lat="44.28929" lon="6.15391">
        <ele>1136.265625</ele>
      </trkpt>
      <trkpt lat="44.28926" lon="6.15396">
        <ele>1137.3984375</ele>
      </trkpt>
    </trkseg>
  </trk>
</gpx>